Wetterdaten: Dienstag, 06.07.2021
Datum Zeit Temp. Aussen Temp. o. S. Temp +5cm Feuchte Auss Luftdruck Regen Sonnenschein Regendauer Solar Windben Empfang
06.07.2021 00:00 18,6 C 17,8 C 17,8 C 93 % 1007,0 hPa 0,0 l/m 0 min 0 min 0 W/m 3,2 km/h (1 Bft) 95,74 %
06.07.2021 00:02 18,6 C 17,8 C 17,8 C 93 % 1007,0 hPa 0,0 l/m 0 min 0 min 0 W/m 0,0 km/h (0 Bft) 11,11 %
06.07.2021 00:04 18,6 C 18,3 C 17,8 C 93 % 1006,9 hPa 0,0 l/m 0 min 0 min 0 W/m 6,4 km/h (2 Bft) 86,96 %
06.07.2021 00:08 18,7 C 18,3 C 17,8 C 93 % 1006,9 hPa 0,0 l/m 0 min 0 min 0 W/m 6,4 km/h (2 Bft) 93,68 %
06.07.2021 00:10 18,7 C 18,3 C 17,8 C 93 % 1006,9 hPa 0,0 l/m 0 min 0 min 0 W/m 3,2 km/h (1 Bft) 93,62 %
06.07.2021 00:12 18,7 C 18,3 C 17,8 C 93 % 1006,9 hPa 0,0 l/m 0 min 0 min 0 W/m 6,4 km/h (2 Bft) 93,48 %
06.07.2021 00:14 18,7 C 18,3 C 17,8 C 93 % 1006,8 hPa 0,0 l/m 0 min 0 min 0 W/m 6,4 km/h (2 Bft) 91,49 %
06.07.2021 00:16 18,7 C 17,8 C 17,8 C 93 % 1006,8 hPa 0,0 l/m 0 min 0 min 0 W/m 6,4 km/h (2 Bft) 93,62 %
06.07.2021 00:18 18,7 C 17,8 C 17,8 C 93 % 1006,9 hPa 0,0 l/m 0 min 0 min 0 W/m 3,2 km/h (1 Bft) 95,74 %
06.07.2021 00:20 18,7 C 17,8 C 17,8 C 93 % 1006,8 hPa 0,0 l/m 0 min 0 min 0 W/m 6,4 km/h (2 Bft) 93,62 %
06.07.2021 00:22 18,7 C 17,8 C 17,8 C 93 % 1006,8 hPa 0,0 l/m 0 min 0 min 0 W/m 3,2 km/h (1 Bft) 93,62 %
06.07.2021 00:24 18,7 C 17,8 C 17,8 C 93 % 1006,8 hPa 0,0 l/m 0 min 0 min 0 W/m 3,2 km/h (1 Bft) 93,48 %
06.07.2021 00:26 18,7 C 17,8 C 17,8 C 93 % 1006,8 hPa 0,0 l/m 0 min 0 min 0 W/m 6,4 km/h (2 Bft) 95,74 %
06.07.2021 00:28 18,7 C 17,8 C 17,8 C 93 % 1006,7 hPa 0,0 l/m 0 min 0 min 0 W/m 3,2 km/h (1 Bft) 95,74 %
06.07.2021 00:30 18,7 C 17,8 C 17,8 C 93 % 1006,7 hPa 0,0 l/m 0 min 0 min 0 W/m 6,4 km/h (2 Bft) 95,74 %
06.07.2021 00:32 18,7 C 17,8 C 17,8 C 93 % 1006,7 hPa 0,0 l/m 0 min 0 min 0 W/m 6,4 km/h (2 Bft) 93,62 %
06.07.2021 00:34 18,7 C 17,8 C 17,8 C 93 % 1006,7 hPa 0,0 l/m 0 min 0 min 0 W/m 6,4 km/h (2 Bft) 95,74 %
06.07.2021 00:36 18,7 C 17,8 C 17,8 C 93 % 1006,7 hPa 0,0 l/m 0 min 0 min 0 W/m 6,4 km/h (2 Bft) 95,65 %
06.07.2021 00:38 18,7 C 17,8 C 17,8 C 93 % 1006,7 hPa 0,0 l/m 0 min 0 min 0 W/m 6,4 km/h (2 Bft) 95,83 %
06.07.2021 00:40 18,7 C 17,8 C 17,8 C 93 % 1006,6 hPa 0,0 l/m 0 min 0 min 0 W/m 6,4 km/h (2 Bft) 95,74 %
06.07.2021 00:42 18,7 C 17,8 C 17,8 C 93 % 1006,6 hPa 0,0 l/m 0 min 0 min 0 W/m 6,4 km/h (2 Bft) 97,87 %
06.07.2021 00:44 18,8 C 17,8 C 17,8 C 93 % 1006,5 hPa 0,0 l/m 0 min 0 min 0 W/m 12,9 km/h (3 Bft) 97,87 %
06.07.2021 00:46 18,7 C 17,8 C 17,8 C 93 % 1006,6 hPa 0,0 l/m 0 min 0 min 0 W/m 16,1 km/h (3 Bft) 97,87 %
06.07.2021 00:48 18,8 C 17,8 C 17,8 C 93 % 1006,6 hPa 0,0 l/m 0 min 0 min 0 W/m 3,2 km/h (1 Bft) 97,83 %
06.07.2021 00:50 18,8 C 17,8 C 17,8 C 93 % 1006,6 hPa 0,0 l/m 0 min 0 min 0 W/m 12,9 km/h (3 Bft) 97,87 %
06.07.2021 00:52 18,7 C 17,8 C 17,8 C 93 % 1006,6 hPa 0,0 l/m 0 min 0 min 0 W/m 6,4 km/h (2 Bft) 97,87 %
06.07.2021 00:54 18,7 C 17,8 C 17,8 C 93 % 1006,6 hPa 0,0 l/m 0 min 0 min 0 W/m 9,7 km/h (2 Bft) 97,87 %
06.07.2021 00:56 18,7 C 17,8 C 17,8 C 93 % 1006,6 hPa 0,0 l/m 0 min 0 min 0 W/m 12,9 km/h (3 Bft) 97,87 %
06.07.2021 00:58 18,7 C 17,8 C 17,8 C 93 % 1006,6 hPa 0,0 l/m 0 min 0 min 0 W/m 6,4 km/h (2 Bft) 97,87 %
06.07.2021 01:00 18,7 C 17,8 C 17,8 C 93 % 1006,6 hPa 0,0 l/m 0 min 0 min 0 W/m 9,7 km/h (2 Bft) 97,83 %
06.07.2021 01:02 18,7 C 17,8 C 17,8 C 93 % 1006,6 hPa 0,0 l/m 0 min 0 min 0 W/m 6,4 km/h (2 Bft) 97,87 %
06.07.2021 01:04 18,7 C 17,8 C 17,8 C 93 % 1006,6 hPa 0,0 l/m 0 min 0 min 0 W/m 6,4 km/h (2 Bft) 97,87 %
06.07.2021 01:06 18,7 C 17,8 C 17,8 C 93 % 1006,6 hPa 0,0 l/m 0 min 0 min 0 W/m 3,2 km/h (1 Bft) 97,87 %
06.07.2021 01:08 18,7 C 17,8 C 17,8 C 94 % 1006,6 hPa 0,0 l/m 0 min 0 min 0 W/m 6,4 km/h (2 Bft) 97,87 %
06.07.2021 01:10 18,6 C 17,8 C 17,8 C 94 % 1006,5 hPa 0,0 l/m 0 min 0 min 0 W/m 12,9 km/h (3 Bft) 95,65 %
06.07.2021 01:12 18,6 C 17,8 C 17,8 C 94 % 1006,5 hPa 0,0 l/m 0 min 0 min 0 W/m 12,9 km/h (3 Bft) 95,74 %
06.07.2021 01:14 18,6 C 17,8 C 17,8 C 94 % 1006,5 hPa 0,0 l/m 0 min 0 min 0 W/m 6,4 km/h (2 Bft) 95,74 %
06.07.2021 01:16 18,6 C 17,8 C 17,8 C 94 % 1006,5 hPa 0,0 l/m 0 min 0 min 0 W/m 6,4 km/h (2 Bft) 97,87 %
06.07.2021 01:18 18,6 C 17,8 C 17,8 C 94 % 1006,6 hPa 0,0 l/m 0 min 0 min 0 W/m 3,2 km/h (1 Bft) 97,87 %
06.07.2021 01:20 18,6 C 17,8 C 17,8 C 94 % 1006,6 hPa 0,0 l/m 0 min 0 min 0 W/m 6,4 km/h (2 Bft) 95,65 %
06.07.2021 01:22 18,5 C 17,8 C 17,8 C 94 % 1006,6 hPa 0,0 l/m 0 min 0 min 0 W/m 6,4 km/h (2 Bft) 97,87 %
06.07.2021 01:24 18,6 C 17,8 C 17,8 C 94 % 1006,6 hPa 0,0 l/m 0 min 0 min 0 W/m 3,2 km/h (1 Bft) 97,87 %
06.07.2021 01:26 18,5 C 17,8 C 17,8 C 94 % 1006,5 hPa 0,0 l/m 0 min 0 min 0 W/m 12,9 km/h (3 Bft) 97,87 %
06.07.2021 01:28 18,5 C 17,8 C 17,8 C 94 % 1006,5 hPa 0,0 l/m 0 min 0 min 0 W/m 12,9 km/h (3 Bft) 95,74 %
06.07.2021 01:30 18,5 C 17,8 C 17,8 C 94 % 1006,5 hPa 0,0 l/m 0 min 0 min 0 W/m 12,9 km/h (3 Bft) 95,74 %
06.07.2021 01:32 18,5 C 17,8 C 17,8 C 93 % 1006,5 hPa 0,0 l/m 0 min 0 min 0 W/m 9,7 km/h (2 Bft) 93,48 %
06.07.2021 01:34 18,5 C 17,8 C 17,8 C 93 % 1006,5 hPa 0,0 l/m 0 min 0 min 0 W/m 12,9 km/h (3 Bft) 97,87 %
06.07.2021 01:36 18,5 C 17,8 C 17,8 C 93 % 1006,5 hPa 0,0 l/m 0 min 0 min 0 W/m 9,7 km/h (2 Bft) 97,87 %
06.07.2021 01:38 18,5 C 17,8 C 17,8 C 93 % 1006,5 hPa 0,0 l/m 0 min 0 min 0 W/m 12,9 km/h (3 Bft) 95,74 %
06.07.2021 01:40 18,5 C 17,8 C 17,8 C 93 % 1006,4 hPa 0,0 l/m 0 min 0 min 0 W/m 9,7 km/h (2 Bft) 97,56 %
06.07.2021 01:42 18,5 C 17,8 C 17,8 C 93 % 1006,5 hPa 0,0 l/m 0 min 0 min 0 W/m 6,4 km/h (2 Bft) 97,87 %
06.07.2021 01:44 18,5 C 17,8 C 17,8 C 93 % 1006,4 hPa 0,0 l/m 0 min 0 min 0 W/m 9,7 km/h (2 Bft) 97,87 %
06.07.2021 01:46 18,5 C 17,8 C 17,8 C 93 % 1006,4 hPa 0,0 l/m 0 min 0 min 0 W/m 12,9 km/h (3 Bft) 97,87 %
06.07.2021 01:48 18,4 C 17,8 C 17,8 C 93 % 1006,3 hPa 0,0 l/m 0 min 0 min 0 W/m 12,9 km/h (3 Bft) 100,00 %
06.07.2021 01:50 18,5 C 17,8 C 17,8 C 93 % 1006,3 hPa 0,0 l/m 0 min 0 min 0 W/m 6,4 km/h (2 Bft) 97,87 %
06.07.2021 01:52 18,5 C 17,8 C 17,8 C 93 % 1006,4 hPa 0,0 l/m 0 min 0 min 0 W/m 6,4 km/h (2 Bft) 100,00 %
06.07.2021 01:54 18,5 C 17,8 C 17,8 C 93 % 1006,4 hPa 0,0 l/m 0 min 0 min 0 W/m 12,9 km/h (3 Bft) 100,00 %
06.07.2021 01:56 18,5 C 17,8 C 17,8 C 93 % 1006,3 hPa 0,0 l/m 0 min 0 min 0 W/m 12,9 km/h (3 Bft) 100,00 %
06.07.2021 01:58 18,4 C 17,8 C 17,8 C 93 % 1006,3 hPa 0,0 l/m 0 min 0 min 0 W/m 6,4 km/h (2 Bft) 100,00 %
06.07.2021 02:00 18,5 C 17,8 C 17,8 C 93 % 1006,3 hPa 0,0 l/m 0 min 0 min 0 W/m 6,4 km/h (2 Bft) 100,00 %
06.07.2021 02:02 18,5 C 17,8 C 17,8 C 92 % 1006,2 hPa 0,0 l/m 0 min 0 min 0 W/m 12,9 km/h (3 Bft) 100,00 %
06.07.2021 02:04 18,5 C 17,8 C 17,8 C 92 % 1006,3 hPa 0,0 l/m 0 min 0 min 0 W/m 6,4 km/h (2 Bft) 97,87 %
06.07.2021 02:06 18,5 C 17,8 C 17,8 C 92 % 1006,2 hPa 0,0 l/m 0 min 0 min 0 W/m 3,2 km/h (1 Bft) 97,87 %
06.07.2021 02:08 18,5 C 17,8 C 17,8 C 92 % 1006,2 hPa 0,0 l/m 0 min 0 min 0 W/m 6,4 km/h (2 Bft) 100,00 %
06.07.2021 02:10 18,5 C 17,8 C 17,8 C 92 % 1006,2 hPa 0,0 l/m 0 min 0 min 0 W/m 9,7 km/h (2 Bft) 100,00 %
06.07.2021 02:12 18,5 C 17,8 C 17,8 C 92 % 1006,2 hPa 0,0 l/m 0 min 0 min 0 W/m 6,4 km/h (2 Bft) 100,00 %
06.07.2021 02:14 18,5 C 17,8 C 17,8 C 92 % 1006,2 hPa 0,0 l/m 0 min 0 min 0 W/m 6,4 km/h (2 Bft) 100,00 %
06.07.2021 02:16 18,5 C 17,8 C 17,8 C 92 % 1006,1 hPa 0,0 l/m 0 min 0 min 0 W/m 6,4 km/h (2 Bft) 100,00 %
06.07.2021 02:18 18,5 C 17,8 C 17,8 C 92 % 1006,1 hPa 0,0 l/m 0 min 0 min 0 W/m 3,2 km/h (1 Bft) 100,00 %
06.07.2021 02:20 18,5 C 17,8 C 17,8 C 92 % 1006,1 hPa 0,0 l/m 0 min 0 min 0 W/m 6,4 km/h (2 Bft) 100,00 %
06.07.2021 02:22 18,5 C 17,8 C 17,8 C 92 % 1006,1 hPa 0,0 l/m 0 min 0 min 0 W/m 6,4 km/h (2 Bft) 100,00 %
06.07.2021 02:24 18,4 C 17,8 C 17,8 C 92 % 1006,1 hPa 0,0 l/m 0 min 0 min 0 W/m 3,2 km/h (1 Bft) 97,87 %
06.07.2021 02:26 18,5 C 17,8 C 17,8 C 92 % 1006,1 hPa 0,0 l/m 0 min 0 min 0 W/m 3,2 km/h (1 Bft) 97,87 %
06.07.2021 02:28 18,5 C 17,8 C 17,8 C 92 % 1006,1 hPa 0,0 l/m 0 min 0 min 0 W/m 3,2 km/h (1 Bft) 97,87 %
06.07.2021 02:30 18,4 C 17,8 C 17,8 C 92 % 1006,1 hPa 0,0 l/m 0 min 0 min 0 W/m 12,9 km/h (3 Bft) 97,87 %
06.07.2021 02:32 18,4 C 17,8 C 17,8 C 92 % 1006,1 hPa 0,0 l/m 0 min 0 min 0 W/m 12,9 km/h (3 Bft) 97,87 %
06.07.2021 02:34 18,4 C 17,8 C 17,8 C 92 % 1006,1 hPa 0,0 l/m 0 min 0 min 0 W/m 12,9 km/h (3 Bft) 95,65 %
06.07.2021 02:36 18,4 C 17,8 C 17,8 C 92 % 1006,1 hPa 0,0 l/m 0 min 0 min 0 W/m 6,4 km/h (2 Bft) 95,74 %
06.07.2021 02:38 18,4 C 17,8 C 17,8 C 92 % 1006,0 hPa 0,0 l/m 0 min 0 min 0 W/m 6,4 km/h (2 Bft) 96,08 %
06.07.2021 02:41 18,4 C 17,8 C 17,8 C 92 % 1006,2 hPa 0,0 l/m 0 min 0 min 0 W/m 6,4 km/h (2 Bft) 98,57 %
06.07.2021 02:42 18,4 C 17,8 C 17,8 C 92 % 1006,2 hPa 0,0 l/m 0 min 0 min 0 W/m 6,4 km/h (2 Bft) 95,83 %
06.07.2021 02:44 18,4 C 17,8 C 17,8 C 93 % 1006,2 hPa 0,0 l/m 0 min 0 min 0 W/m 12,9 km/h (3 Bft) 95,65 %
06.07.2021 02:46 18,4 C 17,8 C 17,8 C 92 % 1006,2 hPa 0,0 l/m 0 min 2 min 0 W/m 6,4 km/h (2 Bft) 95,92 %
06.07.2021 02:48 18,4 C 17,2 C 17,3 C 93 % 1006,2 hPa 0,2 l/m 0 min 2 min 0 W/m 6,4 km/h (2 Bft) 95,74 %
06.07.2021 02:50 18,4 C 17,2 C 16,7 C 93 % 1006,1 hPa 0,0 l/m 0 min 2 min 0 W/m 16,1 km/h (3 Bft) 97,14 %
06.07.2021 02:52 18,4 C 17,2 C 16,7 C 93 % 1006,1 hPa 0,0 l/m 0 min 2 min 0 W/m 12,9 km/h (3 Bft) 93,10 %
06.07.2021 02:54 18,4 C 17,2 C 16,7 C 93 % 1006,0 hPa 0,2 l/m 0 min 2 min 0 W/m 6,4 km/h (2 Bft) 97,87 %
06.07.2021 02:56 18,4 C 17,2 C 16,7 C 93 % 1006,0 hPa 0,0 l/m 0 min 0 min 0 W/m 12,9 km/h (3 Bft) 94,29 %
06.07.2021 02:58 18,4 C 17,2 C 16,7 C 93 % 1006,0 hPa 0,0 l/m 0 min 0 min 0 W/m 6,4 km/h (2 Bft) 96,36 %
06.07.2021 03:00 18,4 C 17,2 C 16,7 C 93 % 1005,9 hPa 0,0 l/m 0 min 0 min 0 W/m 12,9 km/h (3 Bft) 96,00 %
06.07.2021 03:02 18,3 C 17,2 C 16,7 C 94 % 1005,9 hPa 0,0 l/m 0 min 0 min 0 W/m 6,4 km/h (2 Bft) 95,83 %
06.07.2021 03:04 18,3 C 17,2 C 16,7 C 94 % 1005,9 hPa 0,0 l/m 0 min 0 min 0 W/m 6,4 km/h (2 Bft) 94,29 %
06.07.2021 03:06 18,3 C 17,2 C 16,7 C 94 % 1005,8 hPa 0,0 l/m 0 min 0 min 0 W/m 6,4 km/h (2 Bft) 94,55 %
06.07.2021 03:08 18,3 C 17,2 C 16,7 C 94 % 1005,8 hPa 0,0 l/m 0 min 0 min 0 W/m 12,9 km/h (3 Bft) 95,65 %
06.07.2021 03:10 18,2 C 17,2 C 16,7 C 94 % 1005,8 hPa 0,0 l/m 0 min 0 min 0 W/m 6,4 km/h (2 Bft) 95,74 %
06.07.2021 03:12 18,2 C 17,2 C 16,7 C 94 % 1005,8 hPa 0,0 l/m 0 min 0 min 0 W/m 12,9 km/h (3 Bft) 98,00 %
06.07.2021 03:14 18,2 C 17,2 C 16,7 C 94 % 1005,6 hPa 0,0 l/m 0 min 0 min 0 W/m 3,2 km/h (1 Bft) 97,87 %
06.07.2021 03:16 18,2 C 17,2 C 16,7 C 94 % 1005,5 hPa 0,0 l/m 0 min 2 min 0 W/m 6,4 km/h (2 Bft) 95,74 %
06.07.2021 03:18 18,1 C 17,2 C 16,7 C 94 % 1005,4 hPa 0,0 l/m 0 min 0 min 0 W/m 6,4 km/h (2 Bft) 93,62 %
06.07.2021 03:20 18,1 C 17,2 C 16,7 C 94 % 1005,4 hPa 0,0 l/m 0 min 0 min 0 W/m 3,2 km/h (1 Bft) 100,00 %
06.07.2021 03:22 18,1 C 17,2 C 16,7 C 94 % 1005,4 hPa 0,0 l/m 0 min 0 min 0 W/m 3,2 km/h (1 Bft) 96,36 %
06.07.2021 03:24 18,1 C 17,2 C 16,7 C 94 % 1005,3 hPa 0,0 l/m 0 min 0 min 0 W/m 3,2 km/h (1 Bft) 98,00 %
06.07.2021 03:26 18,1 C 17,2 C 16,7 C 94 % 1005,4 hPa 0,0 l/m 0 min 0 min 0 W/m 12,9 km/h (3 Bft) 95,74 %
06.07.2021 03:28 18,0 C 17,2 C 16,7 C 94 % 1005,3 hPa 0,0 l/m 0 min 0 min 0 W/m 6,4 km/h (2 Bft) 97,87 %
06.07.2021 03:30 18,0 C 17,2 C 16,7 C 94 % 1005,4 hPa 0,0 l/m 0 min 0 min 0 W/m 3,2 km/h (1 Bft) 97,22 %
06.07.2021 03:32 18,0 C 17,2 C 16,7 C 94 % 1005,5 hPa 0,0 l/m 0 min 0 min 0 W/m 6,4 km/h (2 Bft) 98,15 %
06.07.2021 03:34 18,0 C 17,2 C 16,7 C 94 % 1005,5 hPa 0,0 l/m 0 min 0 min 0 W/m 6,4 km/h (2 Bft) 100,00 %
06.07.2021 03:36 18,0 C 17,2 C 16,7 C 95 % 1005,4 hPa 0,0 l/m 0 min 0 min 0 W/m 12,9 km/h (3 Bft) 100,00 %
06.07.2021 03:38 18,0 C 17,2 C 16,7 C 95 % 1005,5 hPa 0,0 l/m 0 min 0 min 0 W/m 12,9 km/h (3 Bft) 100,00 %
06.07.2021 03:40 18,0 C 17,2 C 16,7 C 95 % 1005,4 hPa 0,0 l/m 0 min 0 min 0 W/m 6,4 km/h (2 Bft) 100,00 %
06.07.2021 03:42 18,0 C 17,2 C 16,7 C 95 % 1005,3 hPa 0,0 l/m 0 min 0 min 0 W/m 9,7 km/h (2 Bft) 100,00 %
06.07.2021 03:44 18,0 C 17,2 C 16,7 C 95 % 1005,2 hPa 0,0 l/m 0 min 0 min 0 W/m 6,4 km/h (2 Bft) 100,00 %
06.07.2021 03:46 18,0 C 17,2 C 17,3 C 95 % 1005,1 hPa 0,0 l/m 0 min 0 min 0 W/m 6,4 km/h (2 Bft) 100,00 %
06.07.2021 03:48 18,0 C 17,2 C 17,3 C 95 % 1005,1 hPa 0,0 l/m 0 min 0 min 0 W/m 6,4 km/h (2 Bft) 100,00 %
06.07.2021 03:50 18,0 C 17,2 C 17,3 C 96 % 1005,1 hPa 0,0 l/m 0 min 0 min 0 W/m 9,7 km/h (2 Bft) 100,00 %
06.07.2021 03:52 18,0 C 17,2 C 17,3 C 96 % 1005,0 hPa 0,0 l/m 0 min 0 min 0 W/m 9,7 km/h (2 Bft) 100,00 %
06.07.2021 03:54 18,0 C 17,2 C 17,3 C 96 % 1005,1 hPa 0,0 l/m 0 min 0 min 0 W/m 6,4 km/h (2 Bft) 100,00 %
06.07.2021 03:56 18,0 C 17,2 C 17,3 C 96 % 1005,1 hPa 0,0 l/m 0 min 0 min 0 W/m 12,9 km/h (3 Bft) 100,00 %
06.07.2021 03:58 18,0 C 17,2 C 17,3 C 96 % 1005,0 hPa 0,0 l/m 0 min 0 min 0 W/m 19,3 km/h (3 Bft) 100,00 %
06.07.2021 04:00 18,0 C 17,2 C 17,3 C 96 % 1005,0 hPa 0,0 l/m 0 min 0 min 0 W/m 12,9 km/h (3 Bft) 100,00 %
06.07.2021 04:02 18,0 C 17,2 C 17,3 C 96 % 1004,9 hPa 0,0 l/m 0 min 0 min 0 W/m 6,4 km/h (2 Bft) 100,00 %
06.07.2021 04:07 17,9 C 17,2 C 17,3 C 96 % 1005,0 hPa 0,0 l/m 0 min 0 min 0 W/m 16,1 km/h (3 Bft) 96,83 %
06.07.2021 04:08 17,9 C 17,2 C 17,3 C 95 % 1005,0 hPa 0,0 l/m 0 min 0 min 0 W/m 6,4 km/h (2 Bft) 95,65 %
06.07.2021 04:10 17,9 C 17,2 C 17,3 C 95 % 1004,9 hPa 0,0 l/m 0 min 0 min 0 W/m 12,9 km/h (3 Bft) 100,00 %
06.07.2021 04:12 17,9 C 17,2 C 17,3 C 95 % 1004,9 hPa 0,0 l/m 0 min 0 min 0 W/m 6,4 km/h (2 Bft) 98,00 %
06.07.2021 04:14 17,9 C 17,2 C 17,3 C 95 % 1004,9 hPa 0,0 l/m 0 min 0 min 0 W/m 9,7 km/h (2 Bft) 100,00 %
06.07.2021 04:16 17,9 C 17,2 C 17,3 C 95 % 1004,9 hPa 0,0 l/m 0 min 0 min 0 W/m 12,9 km/h (3 Bft) 100,00 %
06.07.2021 04:18 17,9 C 17,2 C 17,3 C 95 % 1005,0 hPa 0,0 l/m 0 min 0 min 0 W/m 6,4 km/h (2 Bft) 100,00 %
06.07.2021 04:20 17,9 C 17,2 C 17,3 C 95 % 1004,9 hPa 0,0 l/m 0 min 0 min 0 W/m 16,1 km/h (3 Bft) 100,00 %
06.07.2021 04:22 17,9 C 17,2 C 17,3 C 95 % 1004,9 hPa 0,0 l/m 0 min 0 min 0 W/m 12,9 km/h (3 Bft) 100,00 %
06.07.2021 04:24 18,0 C 17,2 C 17,3 C 95 % 1004,8 hPa 0,0 l/m 0 min 0 min 0 W/m 12,9 km/h (3 Bft) 100,00 %
06.07.2021 04:26 18,0 C 17,2 C 17,3 C 95 % 1004,8 hPa 0,0 l/m 0 min 0 min 0 W/m 9,7 km/h (2 Bft) 100,00 %
06.07.2021 04:28 18,0 C 17,2 C 17,3 C 95 % 1004,8 hPa 0,0 l/m 0 min 0 min 0 W/m 12,9 km/h (3 Bft) 100,00 %
06.07.2021 04:30 18,0 C 17,2 C 17,3 C 95 % 1004,9 hPa 0,0 l/m 0 min 0 min 0 W/m 12,9 km/h (3 Bft) 100,00 %
06.07.2021 04:32 18,0 C 17,2 C 17,3 C 95 % 1004,9 hPa 0,0 l/m 0 min 0 min 0 W/m 16,1 km/h (3 Bft) 100,00 %
06.07.2021 04:34 18,0 C 17,2 C 17,3 C 95 % 1004,8 hPa 0,0 l/m 0 min 0 min 0 W/m 16,1 km/h (3 Bft) 100,00 %
06.07.2021 04:36 18,0 C 17,2 C 17,3 C 95 % 1004,7 hPa 0,0 l/m 0 min 0 min 0 W/m 12,9 km/h (3 Bft) 100,00 %
06.07.2021 04:38 18,0 C 17,2 C 17,3 C 95 % 1004,7 hPa 0,0 l/m 0 min 0 min 0 W/m 9,7 km/h (2 Bft) 100,00 %
06.07.2021 04:40 18,0 C 17,2 C 17,8 C 95 % 1004,6 hPa 0,0 l/m 0 min 0 min 0 W/m 16,1 km/h (3 Bft) 100,00 %
06.07.2021 04:42 18,0 C 17,2 C 17,8 C 95 % 1004,7 hPa 0,0 l/m 0 min 0 min 0 W/m 12,9 km/h (3 Bft) 100,00 %
06.07.2021 04:44 18,0 C 17,2 C 17,8 C 95 % 1004,7 hPa 0,0 l/m 0 min 0 min 0 W/m 12,9 km/h (3 Bft) 97,87 %
06.07.2021 04:46 18,0 C 17,2 C 17,8 C 95 % 1004,8 hPa 0,0 l/m 0 min 0 min 0 W/m 12,9 km/h (3 Bft) 100,00 %
06.07.2021 04:48 18,0 C 17,2 C 17,8 C 95 % 1004,8 hPa 0,0 l/m 0 min 0 min 0 W/m 6,4 km/h (2 Bft) 100,00 %
06.07.2021 04:50 18,0 C 17,2 C 17,8 C 95 % 1004,8 hPa 0,0 l/m 0 min 0 min 0 W/m 12,9 km/h (3 Bft) 100,00 %
06.07.2021 04:52 18,0 C 17,2 C 17,8 C 95 % 1004,7 hPa 0,0 l/m 0 min 0 min 0 W/m 22,5 km/h (4 Bft) 100,00 %
06.07.2021 04:54 18,0 C 17,2 C 17,8 C 95 % 1004,7 hPa 0,0 l/m 0 min 0 min 0 W/m 12,9 km/h (3 Bft) 100,00 %
06.07.2021 04:56 18,0 C 17,2 C 17,8 C 95 % 1004,6 hPa 0,0 l/m 0 min 0 min 0 W/m 22,5 km/h (4 Bft) 100,00 %
06.07.2021 04:58 18,0 C 17,2 C 17,8 C 94 % 1004,6 hPa 0,0 l/m 0 min 0 min 0 W/m 16,1 km/h (3 Bft) 100,00 %
06.07.2021 05:00 18,0 C 17,2 C 17,8 C 94 % 1004,6 hPa 0,0 l/m 0 min 0 min 0 W/m 12,9 km/h (3 Bft) 100,00 %
06.07.2021 05:02 18,0 C 17,2 C 17,8 C 94 % 1004,5 hPa 0,0 l/m 0 min 0 min 0 W/m 12,9 km/h (3 Bft) 100,00 %
06.07.2021 05:04 18,0 C 17,2 C 17,8 C 94 % 1004,6 hPa 0,0 l/m 0 min 0 min 0 W/m 12,9 km/h (3 Bft) 97,96 %
06.07.2021 05:06 18,0 C 17,2 C 17,8 C 94 % 1004,5 hPa 0,0 l/m 0 min 0 min 0 W/m 22,5 km/h (4 Bft) 100,00 %
06.07.2021 05:08 18,0 C 17,2 C 17,8 C 94 % 1004,5 hPa 0,0 l/m 0 min 0 min 0 W/m 16,1 km/h (3 Bft) 97,87 %
06.07.2021 05:10 18,0 C 17,2 C 17,8 C 94 % 1004,5 hPa 0,0 l/m 0 min 0 min 0 W/m 6,4 km/h (2 Bft) 97,87 %
06.07.2021 05:12 18,0 C 17,2 C 17,8 C 94 % 1004,4 hPa 0,0 l/m 0 min 0 min 0 W/m 12,9 km/h (3 Bft) 97,87 %
06.07.2021 05:14 18,0 C 17,2 C 17,8 C 94 % 1004,3 hPa 0,0 l/m 0 min 0 min 0 W/m 12,9 km/h (3 Bft) 100,00 %
06.07.2021 05:16 18,0 C 17,2 C 17,8 C 94 % 1004,3 hPa 0,0 l/m 0 min 0 min 0 W/m 12,9 km/h (3 Bft) 97,87 %
06.07.2021 05:18 18,0 C 17,2 C 17,8 C 94 % 1004,3 hPa 0,0 l/m 0 min 0 min 0 W/m 16,1 km/h (3 Bft) 95,65 %
06.07.2021 05:20 18,0 C 17,2 C 17,8 C 94 % 1004,1 hPa 0,0 l/m 0 min 0 min 0 W/m 6,4 km/h (2 Bft) 95,74 %
06.07.2021 05:22 18,0 C 17,2 C 17,8 C 94 % 1004,1 hPa 0,0 l/m 0 min 0 min 0 W/m 6,4 km/h (2 Bft) 97,87 %
06.07.2021 05:24 17,9 C 17,2 C 17,8 C 94 % 1004,1 hPa 0,0 l/m 0 min 0 min 0 W/m 16,1 km/h (3 Bft) 97,87 %
06.07.2021 05:26 17,9 C 17,2 C 17,8 C 94 % 1004,1 hPa 0,0 l/m 0 min 0 min 0 W/m 16,1 km/h (3 Bft) 97,87 %
06.07.2021 05:28 17,9 C 17,2 C 17,8 C 94 % 1004,1 hPa 0,0 l/m 0 min 0 min 0 W/m 16,1 km/h (3 Bft) 95,74 %
06.07.2021 05:30 17,9 C 17,2 C 17,8 C 94 % 1004,1 hPa 0,0 l/m 0 min 0 min 0 W/m 12,9 km/h (3 Bft) 95,65 %
06.07.2021 05:32 17,9 C 17,2 C 17,8 C 94 % 1004,1 hPa 0,0 l/m 0 min 0 min 0 W/m 6,4 km/h (2 Bft) 97,87 %
06.07.2021 05:34 17,9 C 17,2 C 17,8 C 94 % 1004,1 hPa 0,0 l/m 0 min 0 min 0 W/m 22,5 km/h (4 Bft) 93,62 %
06.07.2021 05:36 17,9 C 17,2 C 17,8 C 94 % 1004,1 hPa 0,0 l/m 0 min 0 min 0 W/m 16,1 km/h (3 Bft) 95,74 %
06.07.2021 05:38 17,9 C 17,2 C 17,8 C 94 % 1004,1 hPa 0,0 l/m 0 min 0 min 4 W/m 12,9 km/h (3 Bft) 91,49 %
06.07.2021 05:40 17,9 C 17,2 C 17,8 C 94 % 1004,0 hPa 0,0 l/m 0 min 0 min 5 W/m 16,1 km/h (3 Bft) 95,65 %
06.07.2021 05:42 17,9 C 17,2 C 17,8 C 94 % 1004,0 hPa 0,0 l/m 0 min 0 min 5 W/m 19,3 km/h (3 Bft) 95,74 %
06.07.2021 05:44 17,9 C 17,2 C 17,8 C 94 % 1004,0 hPa 0,0 l/m 0 min 0 min 8 W/m 22,5 km/h (4 Bft) 95,74 %
06.07.2021 05:46 17,9 C 17,2 C 17,8 C 94 % 1004,0 hPa 0,0 l/m 0 min 0 min 9 W/m 16,1 km/h (3 Bft) 91,49 %
06.07.2021 05:48 17,9 C 17,2 C 17,8 C 94 % 1004,0 hPa 0,0 l/m 0 min 0 min 12 W/m 12,9 km/h (3 Bft) 95,74 %
06.07.2021 05:50 17,9 C 17,2 C 17,8 C 94 % 1003,9 hPa 0,0 l/m 0 min 0 min 14 W/m 19,3 km/h (3 Bft) 93,62 %
06.07.2021 05:52 17,9 C 17,2 C 17,8 C 94 % 1003,9 hPa 0,0 l/m 0 min 0 min 14 W/m 16,1 km/h (3 Bft) 95,65 %
06.07.2021 05:54 17,9 C 17,2 C 17,8 C 94 % 1003,9 hPa 0,0 l/m 0 min 0 min 14 W/m 12,9 km/h (3 Bft) 95,74 %
06.07.2021 05:56 17,9 C 17,2 C 17,8 C 94 % 1003,8 hPa 0,0 l/m 0 min 0 min 14 W/m 16,1 km/h (3 Bft) 95,74 %
06.07.2021 05:58 18,0 C 17,2 C 17,8 C 94 % 1003,6 hPa 0,0 l/m 0 min 0 min 14 W/m 19,3 km/h (3 Bft) 97,87 %
06.07.2021 06:00 18,0 C 17,2 C 17,8 C 94 % 1003,5 hPa 0,0 l/m 0 min 0 min 14 W/m 12,9 km/h (3 Bft) 95,74 %
06.07.2021 06:02 18,0 C 17,2 C 17,8 C 94 % 1003,5 hPa 0,0 l/m 0 min 0 min 13 W/m 12,9 km/h (3 Bft) 95,74 %
06.07.2021 06:04 18,0 C 17,2 C 17,8 C 94 % 1003,3 hPa 0,0 l/m 0 min 0 min 14 W/m 12,9 km/h (3 Bft) 93,48 %
06.07.2021 06:08 18,0 C 17,2 C 17,8 C 94 % 1003,4 hPa 0,0 l/m 0 min 0 min 15 W/m 16,1 km/h (3 Bft) 94,74 %
06.07.2021 06:10 18,0 C 17,2 C 17,8 C 93 % 1003,3 hPa 0,0 l/m 0 min 0 min 16 W/m 16,1 km/h (3 Bft) 97,87 %
06.07.2021 06:12 18,0 C 17,2 C 17,8 C 93 % 1003,3 hPa 0,0 l/m 0 min 0 min 19 W/m 22,5 km/h (4 Bft) 97,87 %
06.07.2021 06:14 18,1 C 17,2 C 17,8 C 93 % 1003,3 hPa 0,0 l/m 0 min 0 min 19 W/m 19,3 km/h (3 Bft) 97,83 %
06.07.2021 06:16 18,1 C 17,2 C 17,8 C 94 % 1003,3 hPa 0,0 l/m 0 min 0 min 18 W/m 19,3 km/h (3 Bft) 97,87 %
06.07.2021 06:18 18,1 C 17,2 C 17,8 C 93 % 1003,4 hPa 0,0 l/m 0 min 0 min 19 W/m 25,7 km/h (4 Bft) 95,74 %
06.07.2021 06:20 18,1 C 17,2 C 17,8 C 93 % 1003,4 hPa 0,0 l/m 0 min 0 min 19 W/m 9,7 km/h (2 Bft) 100,00 %
06.07.2021 06:22 18,1 C 17,2 C 17,8 C 93 % 1003,5 hPa 0,0 l/m 0 min 0 min 18 W/m 19,3 km/h (3 Bft) 100,00 %
06.07.2021 06:24 18,1 C 17,8 C 17,8 C 93 % 1003,3 hPa 0,0 l/m 0 min 0 min 17 W/m 22,5 km/h (4 Bft) 100,00 %
06.07.2021 06:26 18,1 C 17,8 C 17,8 C 93 % 1003,3 hPa 0,0 l/m 0 min 0 min 16 W/m 12,9 km/h (3 Bft) 100,00 %
06.07.2021 06:28 18,1 C 17,8 C 17,8 C 93 % 1003,4 hPa 0,0 l/m 0 min 2 min 14 W/m 16,1 km/h (3 Bft) 97,87 %
06.07.2021 06:30 18,1 C 17,8 C 17,8 C 93 % 1003,4 hPa 0,0 l/m 0 min 2 min 11 W/m 16,1 km/h (3 Bft) 100,00 %
06.07.2021 06:32 18,2 C 17,8 C 17,8 C 93 % 1003,5 hPa 0,0 l/m 0 min 2 min 9 W/m 16,1 km/h (3 Bft) 100,00 %
06.07.2021 06:34 18,2 C 17,2 C 17,8 C 93 % 1003,5 hPa 0,0 l/m 0 min 2 min 9 W/m 19,3 km/h (3 Bft) 100,00 %
06.07.2021 06:36 18,2 C 17,2 C 17,8 C 93 % 1003,5 hPa 0,0 l/m 0 min 2 min 9 W/m 22,5 km/h (4 Bft) 97,83 %
06.07.2021 06:38 18,2 C 17,2 C 17,3 C 93 % 1003,6 hPa 0,0 l/m 0 min 2 min 11 W/m 29,0 km/h (5 Bft) 100,00 %
06.07.2021 06:40 18,2 C 17,2 C 17,3 C 93 % 1003,7 hPa 0,0 l/m 0 min 2 min 12 W/m 32,2 km/h (5 Bft) 100,00 %
06.07.2021 06:42 18,3 C 17,2 C 17,3 C 93 % 1003,6 hPa 0,0 l/m 0 min 2 min 14 W/m 22,5 km/h (4 Bft) 100,00 %
06.07.2021 06:44 18,3 C 17,2 C 17,3 C 93 % 1003,7 hPa 0,0 l/m 0 min 2 min 13 W/m 19,3 km/h (3 Bft) 100,00 %
06.07.2021 06:46 18,3 C 17,2 C 17,3 C 93 % 1003,7 hPa 0,0 l/m 0 min 2 min 10 W/m 12,9 km/h (3 Bft) 100,00 %
06.07.2021 06:48 18,3 C 17,2 C 17,3 C 93 % 1003,8 hPa 0,2 l/m 0 min 2 min 10 W/m 16,1 km/h (3 Bft) 100,00 %
06.07.2021 06:50 18,2 C 17,2 C 16,7 C 93 % 1003,7 hPa 0,0 l/m 0 min 2 min 12 W/m 19,3 km/h (3 Bft) 100,00 %
06.07.2021 06:52 18,2 C 17,2 C 16,7 C 93 % 1003,7 hPa 0,0 l/m 0 min 2 min 15 W/m 19,3 km/h (3 Bft) 100,00 %
06.07.2021 06:56 18,1 C 17,2 C 16,7 C 93 % 1003,7 hPa 0,0 l/m 0 min 0 min 20 W/m 19,3 km/h (3 Bft) 100,00 %
06.07.2021 06:58 18,1 C 17,2 C 16,7 C 94 % 1003,7 hPa 0,0 l/m 0 min 2 min 24 W/m 16,1 km/h (3 Bft) 100,00 %
06.07.2021 07:00 18,1 C 17,2 C 16,7 C 94 % 1003,8 hPa 0,0 l/m 0 min 0 min 24 W/m 22,5 km/h (4 Bft) 100,00 %
06.07.2021 07:02 18,1 C 17,2 C 16,7 C 93 % 1003,9 hPa 0,0 l/m 0 min 0 min 18 W/m 19,3 km/h (3 Bft) 97,87 %
06.07.2021 07:04 18,1 C 17,2 C 16,7 C 94 % 1003,9 hPa 0,0 l/m 0 min 2 min 15 W/m 12,9 km/h (3 Bft) 100,00 %
06.07.2021 07:06 18,1 C 17,2 C 16,7 C 94 % 1004,0 hPa 0,0 l/m 0 min 2 min 16 W/m 19,3 km/h (3 Bft) 100,00 %
06.07.2021 07:08 18,1 C 17,2 C 16,7 C 94 % 1004,3 hPa 0,0 l/m 0 min 2 min 16 W/m 16,1 km/h (3 Bft) 100,00 %
06.07.2021 07:10 18,1 C 17,2 C 16,7 C 94 % 1004,3 hPa 0,0 l/m 0 min 2 min 19 W/m 22,5 km/h (4 Bft) 100,00 %
06.07.2021 07:12 18,0 C 17,2 C 16,7 C 94 % 1004,4 hPa 0,0 l/m 0 min 2 min 19 W/m 25,7 km/h (4 Bft) 100,00 %
06.07.2021 07:14 18,0 C 17,2 C 16,7 C 94 % 1004,4 hPa 0,0 l/m 0 min 2 min 18 W/m 29,0 km/h (5 Bft) 100,00 %
06.07.2021 07:16 18,0 C 17,2 C 16,7 C 94 % 1004,3 hPa 0,0 l/m 0 min 0 min 18 W/m 22,5 km/h (4 Bft) 100,00 %
06.07.2021 07:18 18,0 C 17,2 C 16,7 C 94 % 1004,5 hPa 0,0 l/m 0 min 0 min 19 W/m 19,3 km/h (3 Bft) 97,87 %
06.07.2021 07:20 18,0 C 17,2 C 16,7 C 94 % 1004,5 hPa 0,0 l/m 0 min 0 min 19 W/m 19,3 km/h (3 Bft) 100,00 %
06.07.2021 07:22 18,0 C 17,2 C 16,7 C 94 % 1004,5 hPa 0,0 l/m 0 min 0 min 21 W/m 25,7 km/h (4 Bft) 100,00 %
06.07.2021 07:24 18,0 C 17,2 C 17,3 C 94 % 1004,3 hPa 0,0 l/m 0 min 2 min 21 W/m 16,1 km/h (3 Bft) 100,00 %
06.07.2021 07:26 18,0 C 17,2 C 17,3 C 94 % 1004,3 hPa 0,0 l/m 0 min 2 min 24 W/m 16,1 km/h (3 Bft) 100,00 %
06.07.2021 07:28 18,0 C 17,2 C 17,3 C 94 % 1004,6 hPa 0,2 l/m 0 min 2 min 25 W/m 16,1 km/h (3 Bft) 100,00 %
06.07.2021 07:30 18,0 C 17,2 C 17,3 C 94 % 1004,5 hPa 0,0 l/m 0 min 2 min 26 W/m 22,5 km/h (4 Bft) 100,00 %
06.07.2021 07:32 18,0 C 17,2 C 17,3 C 95 % 1004,6 hPa 0,0 l/m 0 min 2 min 28 W/m 12,9 km/h (3 Bft) 100,00 %
06.07.2021 07:34 18,0 C 17,2 C 17,3 C 95 % 1004,6 hPa 0,0 l/m 0 min 2 min 29 W/m 16,1 km/h (3 Bft) 100,00 %
06.07.2021 07:36 18,0 C 17,2 C 17,3 C 95 % 1004,6 hPa 0,0 l/m 0 min 2 min 32 W/m 16,1 km/h (3 Bft) 100,00 %
06.07.2021 07:38 18,0 C 17,2 C 17,3 C 95 % 1004,5 hPa 0,0 l/m 0 min 2 min 33 W/m 12,9 km/h (3 Bft) 96,30 %
06.07.2021 07:40 18,0 C 17,2 C 17,3 C 95 % 1004,5 hPa 0,0 l/m 0 min 2 min 36 W/m 25,7 km/h (4 Bft) 97,83 %
06.07.2021 07:42 18,1 C 17,2 C 17,3 C 95 % 1004,7 hPa 0,0 l/m 0 min 2 min 39 W/m 16,1 km/h (3 Bft) 95,74 %
06.07.2021 07:44 18,1 C 17,2 C 17,3 C 95 % 1004,7 hPa 0,0 l/m 0 min 2 min 34 W/m 19,3 km/h (3 Bft) 97,87 %
06.07.2021 07:46 18,1 C 17,2 C 17,3 C 95 % 1004,8 hPa 0,0 l/m 0 min 2 min 30 W/m 16,1 km/h (3 Bft) 93,62 %
06.07.2021 07:48 18,1 C 17,2 C 17,3 C 95 % 1004,7 hPa 0,0 l/m 0 min 2 min 26 W/m 12,9 km/h (3 Bft) 97,87 %
06.07.2021 07:50 18,1 C 17,2 C 17,3 C 95 % 1004,6 hPa 0,0 l/m 0 min 0 min 24 W/m 9,7 km/h (2 Bft) 97,87 %
06.07.2021 07:52 18,1 C 17,2 C 17,3 C 95 % 1004,4 hPa 0,0 l/m 0 min 0 min 20 W/m 16,1 km/h (3 Bft) 95,65 %
06.07.2021 07:54 18,1 C 17,2 C 17,3 C 95 % 1004,4 hPa 0,0 l/m 0 min 2 min 19 W/m 19,3 km/h (3 Bft) 97,87 %
06.07.2021 07:56 18,1 C 17,2 C 17,3 C 95 % 1004,4 hPa 0,0 l/m 0 min 2 min 20 W/m 19,3 km/h (3 Bft) 100,00 %
06.07.2021 07:58 18,1 C 17,2 C 17,3 C 95 % 1004,5 hPa 0,0 l/m 0 min 2 min 22 W/m 16,1 km/h (3 Bft) 97,87 %
06.07.2021 08:00 18,1 C 17,2 C 17,3 C 95 % 1004,5 hPa 0,0 l/m 0 min 2 min 23 W/m 32,2 km/h (5 Bft) 97,87 %
06.07.2021 08:02 18,1 C 17,2 C 17,3 C 95 % 1004,4 hPa 0,2 l/m 0 min 2 min 23 W/m 16,1 km/h (3 Bft) 96,77 %
06.07.2021 08:04 18,1 C 17,2 C 17,3 C 95 % 1004,2 hPa 0,0 l/m 0 min 2 min 24 W/m 12,9 km/h (3 Bft) 98,00 %
06.07.2021 08:06 18,1 C 17,2 C 17,3 C 95 % 1004,3 hPa 0,0 l/m 0 min 2 min 24 W/m 12,9 km/h (3 Bft) 95,74 %
06.07.2021 08:08 18,2 C 17,2 C 17,3 C 95 % 1003,9 hPa 0,0 l/m 0 min 2 min 23 W/m 6,4 km/h (2 Bft) 97,87 %
06.07.2021 08:10 18,1 C 17,2 C 17,3 C 95 % 1003,8 hPa 0,0 l/m 0 min 2 min 25 W/m 12,9 km/h (3 Bft) 95,65 %
06.07.2021 08:12 18,1 C 17,2 C 17,3 C 95 % 1003,8 hPa 0,0 l/m 0 min 2 min 25 W/m 12,9 km/h (3 Bft) 95,74 %
06.07.2021 08:14 18,1 C 17,2 C 17,3 C 95 % 1003,8 hPa 0,0 l/m 0 min 2 min 25 W/m 12,9 km/h (3 Bft) 93,62 %
06.07.2021 08:16 18,1 C 17,2 C 17,3 C 95 % 1003,8 hPa 0,0 l/m 0 min 2 min 25 W/m 12,9 km/h (3 Bft) 93,62 %
06.07.2021 08:18 18,1 C 17,2 C 17,3 C 95 % 1003,8 hPa 0,0 l/m 0 min 0 min 26 W/m 12,9 km/h (3 Bft) 95,74 %
06.07.2021 08:20 18,1 C 17,2 C 17,3 C 95 % 1003,8 hPa 0,0 l/m 0 min 2 min 29 W/m 22,5 km/h (4 Bft) 95,74 %
06.07.2021 08:22 18,0 C 17,2 C 17,3 C 95 % 1003,9 hPa 0,0 l/m 0 min 0 min 33 W/m 19,3 km/h (3 Bft) 95,65 %
06.07.2021 08:24 18,0 C 17,2 C 17,3 C 95 % 1004,2 hPa 0,0 l/m 0 min 2 min 38 W/m 22,5 km/h (4 Bft) 91,49 %
06.07.2021 08:26 18,0 C 17,2 C 17,3 C 96 % 1004,1 hPa 0,0 l/m 0 min 2 min 41 W/m 22,5 km/h (4 Bft) 93,62 %
06.07.2021 08:28 18,0 C 17,2 C 17,3 C 96 % 1003,8 hPa 0,0 l/m 0 min 2 min 42 W/m 19,3 km/h (3 Bft) 91,49 %
06.07.2021 08:30 18,0 C 17,2 C 17,3 C 96 % 1003,7 hPa 0,0 l/m 0 min 2 min 39 W/m 16,1 km/h (3 Bft) 93,62 %
06.07.2021 08:32 18,0 C 17,2 C 17,3 C 96 % 1003,6 hPa 0,0 l/m 0 min 2 min 34 W/m 16,1 km/h (3 Bft) 93,62 %
06.07.2021 08:34 18,0 C 17,2 C 17,3 C 96 % 1003,7 hPa 0,0 l/m 0 min 2 min 30 W/m 35,4 km/h (5 Bft) 93,48 %
06.07.2021 08:36 18,0 C 17,2 C 17,3 C 96 % 1003,6 hPa 0,0 l/m 0 min 2 min 28 W/m 16,1 km/h (3 Bft) 93,62 %
06.07.2021 08:38 18,1 C 17,2 C 17,3 C 95 % 1003,9 hPa 0,0 l/m 0 min 2 min 28 W/m 16,1 km/h (3 Bft) 93,62 %
06.07.2021 08:40 18,1 C 17,2 C 17,3 C 95 % 1003,7 hPa 0,0 l/m 0 min 2 min 31 W/m 12,9 km/h (3 Bft) 89,36 %
06.07.2021 08:42 18,1 C 17,2 C 17,3 C 96 % 1003,6 hPa 0,0 l/m 0 min 2 min 33 W/m 19,3 km/h (3 Bft) 93,62 %
06.07.2021 08:44 18,1 C 17,2 C 17,3 C 96 % 1003,5 hPa 0,0 l/m 0 min 0 min 36 W/m 19,3 km/h (3 Bft) 93,62 %
06.07.2021 08:46 18,1 C 17,2 C 17,3 C 96 % 1003,2 hPa 0,0 l/m 0 min 2 min 42 W/m 22,5 km/h (4 Bft) 93,48 %
06.07.2021 08:47 18,1 C 17,8 C 17,3 C 95 % 1003,4 hPa 0,0 l/m 0 min 1 min 52 W/m 16,1 km/h (3 Bft) 93,62 %
06.07.2021 08:50 18,1 C 17,8 C 17,3 C 95 % 1003,5 hPa 0,0 l/m 0 min 0 min 50 W/m 12,9 km/h (3 Bft) 95,74 %
06.07.2021 08:52 18,1 C 17,8 C 17,3 C 95 % 1003,5 hPa 0,0 l/m 0 min 0 min 48 W/m 16,1 km/h (3 Bft) 93,62 %
06.07.2021 08:54 18,1 C 17,8 C 17,8 C 95 % 1003,3 hPa 0,0 l/m 0 min 0 min 64 W/m 25,7 km/h (4 Bft) 90,91 %
06.07.2021 08:56 18,2 C 17,8 C 17,8 C 95 % 1003,4 hPa 0,0 l/m 0 min 0 min 92 W/m 16,1 km/h (3 Bft) 93,62 %
06.07.2021 08:58 18,2 C 17,8 C 17,8 C 95 % 1003,7 hPa 0,0 l/m 0 min 0 min 108 W/m 12,9 km/h (3 Bft) 94,00 %
06.07.2021 09:00 18,3 C 17,8 C 17,8 C 95 % 1003,7 hPa 0,0 l/m 0 min 0 min 101 W/m 16,1 km/h (3 Bft) 93,62 %
06.07.2021 09:02 18,3 C 17,8 C 17,8 C 95 % 1003,6 hPa 0,0 l/m 0 min 0 min 100 W/m 16,1 km/h (3 Bft) 95,74 %
06.07.2021 09:04 18,3 C 17,8 C 17,8 C 95 % 1003,8 hPa 0,0 l/m 0 min 0 min 104 W/m 19,3 km/h (3 Bft) 97,14 %
06.07.2021 09:06 18,3 C 17,8 C 17,8 C 95 % 1003,7 hPa 0,0 l/m 0 min 0 min 100 W/m 16,1 km/h (3 Bft) 97,87 %
06.07.2021 09:08 18,4 C 17,8 C 17,8 C 95 % 1003,9 hPa 0,0 l/m 0 min 0 min 97 W/m 12,9 km/h (3 Bft) 95,65 %
06.07.2021 09:10 18,4 C 17,8 C 17,8 C 95 % 1003,9 hPa 0,0 l/m 0 min 0 min 93 W/m 19,3 km/h (3 Bft) 97,87 %
06.07.2021 09:12 18,4 C 17,8 C 17,8 C 95 % 1003,9 hPa 0,0 l/m 0 min 0 min 86 W/m 19,3 km/h (3 Bft) 95,74 %
06.07.2021 09:14 18,4 C 17,8 C 17,8 C 95 % 1003,9 hPa 0,0 l/m 0 min 0 min 80 W/m 19,3 km/h (3 Bft) 96,30 %
06.07.2021 09:16 18,4 C 17,8 C 17,8 C 95 % 1003,9 hPa 0,0 l/m 0 min 0 min 77 W/m 19,3 km/h (3 Bft) 97,96 %
06.07.2021 09:18 18,5 C 17,8 C 17,8 C 95 % 1004,0 hPa 0,0 l/m 0 min 0 min 76 W/m 19,3 km/h (3 Bft) 95,92 %
06.07.2021 09:20 18,5 C 17,8 C 17,8 C 94 % 1003,9 hPa 0,0 l/m 0 min 0 min 74 W/m 16,1 km/h (3 Bft) 97,14 %
06.07.2021 09:22 18,5 C 17,8 C 17,8 C 94 % 1004,0 hPa 0,0 l/m 0 min 0 min 74 W/m 22,5 km/h (4 Bft) 98,15 %
06.07.2021 09:24 18,5 C 17,8 C 17,8 C 94 % 1004,1 hPa 0,0 l/m 0 min 0 min 73 W/m 19,3 km/h (3 Bft) 98,00 %
06.07.2021 09:26 18,5 C 17,8 C 17,8 C 94 % 1004,1 hPa 0,0 l/m 0 min 0 min 71 W/m 22,5 km/h (4 Bft) 97,96 %
06.07.2021 09:28 18,5 C 17,8 C 17,8 C 94 % 1004,1 hPa 0,0 l/m 0 min 0 min 74 W/m 29,0 km/h (5 Bft) 97,83 %
06.07.2021 09:30 18,5 C 17,8 C 17,8 C 94 % 1004,1 hPa 0,0 l/m 0 min 0 min 78 W/m 19,3 km/h (3 Bft) 97,87 %
06.07.2021 09:32 18,5 C 17,8 C 17,8 C 94 % 1004,2 hPa 0,0 l/m 0 min 0 min 85 W/m 22,5 km/h (4 Bft) 97,14 %
06.07.2021 09:34 18,5 C 17,8 C 18,4 C 94 % 1004,3 hPa 0,0 l/m 0 min 0 min 89 W/m 12,9 km/h (3 Bft) 98,15 %
06.07.2021 09:36 18,5 C 17,8 C 18,4 C 94 % 1004,3 hPa 0,0 l/m 0 min 0 min 88 W/m 12,9 km/h (3 Bft) 96,00 %
06.07.2021 09:38 18,6 C 18,3 C 18,4 C 94 % 1004,4 hPa 0,0 l/m 0 min 0 min 92 W/m 19,3 km/h (3 Bft) 97,83 %
06.07.2021 09:40 18,6 C 18,3 C 18,4 C 94 % 1004,5 hPa 0,0 l/m 0 min 0 min 97 W/m 19,3 km/h (3 Bft) 95,74 %
06.07.2021 09:42 18,6 C 18,3 C 18,4 C 94 % 1004,5 hPa 0,0 l/m 0 min 0 min 95 W/m 19,3 km/h (3 Bft) 97,96 %
06.07.2021 09:44 18,6 C 18,3 C 18,4 C 94 % 1004,5 hPa 0,0 l/m 0 min 0 min 92 W/m 19,3 km/h (3 Bft) 97,87 %
06.07.2021 09:46 18,6 C 18,3 C 18,4 C 94 % 1004,6 hPa 0,0 l/m 0 min 0 min 90 W/m 19,3 km/h (3 Bft) 97,87 %
06.07.2021 09:48 18,6 C 18,3 C 18,4 C 94 % 1004,7 hPa 0,0 l/m 0 min 0 min 90 W/m 12,9 km/h (3 Bft) 97,14 %
06.07.2021 09:50 18,6 C 18,3 C 18,4 C 94 % 1004,9 hPa 0,0 l/m 0 min 0 min 87 W/m 16,1 km/h (3 Bft) 98,11 %
06.07.2021 09:52 18,7 C 18,3 C 18,4 C 94 % 1004,9 hPa 0,0 l/m 0 min 0 min 82 W/m 29,0 km/h (5 Bft) 97,87 %
06.07.2021 09:54 18,7 C 18,3 C 18,4 C 94 % 1004,9 hPa 0,0 l/m 0 min 0 min 79 W/m 25,7 km/h (4 Bft) 97,87 %
06.07.2021 09:56 18,7 C 18,3 C 18,4 C 94 % 1004,8 hPa 0,0 l/m 0 min 0 min 81 W/m 19,3 km/h (3 Bft) 95,74 %
06.07.2021 09:58 18,8 C 18,3 C 18,4 C 94 % 1004,8 hPa 0,0 l/m 0 min 0 min 89 W/m 19,3 km/h (3 Bft) 97,87 %
06.07.2021 10:00 18,8 C 18,3 C 18,4 C 94 % 1004,8 hPa 0,0 l/m 0 min 0 min 101 W/m 19,3 km/h (3 Bft) 98,04 %
06.07.2021 10:02 18,8 C 18,3 C 18,4 C 94 % 1004,8 hPa 0,0 l/m 0 min 0 min 140 W/m 16,1 km/h (3 Bft) 97,83 %
06.07.2021 10:04 18,8 C 18,3 C 18,4 C 94 % 1004,8 hPa 0,0 l/m 0 min 0 min 166 W/m 25,7 km/h (4 Bft) 97,30 %
06.07.2021 10:06 18,8 C 18,3 C 18,4 C 94 % 1004,7 hPa 0,0 l/m 0 min 0 min 136 W/m 12,9 km/h (3 Bft) 97,83 %
06.07.2021 10:08 18,9 C 18,3 C 18,4 C 94 % 1004,7 hPa 0,0 l/m 0 min 0 min 125 W/m 19,3 km/h (3 Bft) 97,87 %
06.07.2021 10:10 18,9 C 18,3 C 18,4 C 94 % 1004,7 hPa 0,0 l/m 0 min 0 min 119 W/m 16,1 km/h (3 Bft) 97,87 %
06.07.2021 10:12 18,9 C 18,3 C 18,4 C 94 % 1004,8 hPa 0,0 l/m 0 min 0 min 105 W/m 16,1 km/h (3 Bft) 98,18 %
06.07.2021 10:14 18,9 C 18,3 C 18,4 C 94 % 1005,0 hPa 0,0 l/m 0 min 0 min 88 W/m 12,9 km/h (3 Bft) 97,83 %
06.07.2021 10:16 18,9 C 18,3 C 18,4 C 94 % 1004,9 hPa 0,0 l/m 0 min 0 min 80 W/m 12,9 km/h (3 Bft) 98,00 %
06.07.2021 10:18 18,9 C 18,3 C 18,4 C 94 % 1004,9 hPa 0,0 l/m 0 min 0 min 90 W/m 12,9 km/h (3 Bft) 97,22 %
06.07.2021 10:20 18,9 C 18,3 C 18,9 C 94 % 1004,9 hPa 0,0 l/m 0 min 0 min 97 W/m 9,7 km/h (2 Bft) 97,87 %
06.07.2021 10:22 18,9 C 18,9 C 18,9 C 94 % 1004,9 hPa 0,0 l/m 0 min 0 min 100 W/m 16,1 km/h (3 Bft) 97,87 %
06.07.2021 10:24 18,9 C 18,9 C 18,9 C 93 % 1004,9 hPa 0,0 l/m 0 min 0 min 100 W/m 12,9 km/h (3 Bft) 97,87 %
06.07.2021 10:26 19,0 C 18,9 C 18,9 C 93 % 1004,8 hPa 0,0 l/m 0 min 0 min 115 W/m 6,4 km/h (2 Bft) 97,87 %
06.07.2021 10:28 19,0 C 18,9 C 18,9 C 93 % 1004,8 hPa 0,0 l/m 0 min 0 min 127 W/m 12,9 km/h (3 Bft) 97,87 %
06.07.2021 10:30 19,0 C 18,9 C 18,9 C 93 % 1004,8 hPa 0,0 l/m 0 min 0 min 162 W/m 12,9 km/h (3 Bft) 97,83 %
06.07.2021 10:32 19,0 C 18,9 C 19,5 C 93 % 1004,7 hPa 0,0 l/m 0 min 0 min 179 W/m 6,4 km/h (2 Bft) 97,87 %
06.07.2021 10:34 19,0 C 18,9 C 19,5 C 93 % 1004,7 hPa 0,0 l/m 0 min 0 min 177 W/m 16,1 km/h (3 Bft) 97,87 %
06.07.2021 10:36 19,1 C 19,4 C 19,5 C 92 % 1004,8 hPa 0,0 l/m 0 min 0 min 191 W/m 16,1 km/h (3 Bft) 97,87 %
06.07.2021 10:38 19,1 C 19,4 C 19,5 C 92 % 1004,8 hPa 0,0 l/m 0 min 0 min 210 W/m 9,7 km/h (2 Bft) 95,74 %
06.07.2021 10:40 19,2 C 19,4 C 19,5 C 92 % 1004,9 hPa 0,0 l/m 0 min 0 min 190 W/m 19,3 km/h (3 Bft) 97,87 %
06.07.2021 10:42 19,3 C 19,4 C 19,5 C 91 % 1005,0 hPa 0,0 l/m 0 min 0 min 220 W/m 22,5 km/h (4 Bft) 100,00 %
06.07.2021 10:44 19,3 C 19,4 C 19,5 C 91 % 1004,9 hPa 0,0 l/m 0 min 0 min 223 W/m 22,5 km/h (4 Bft) 94,64 %
06.07.2021 10:46 19,4 C 19,4 C 19,5 C 91 % 1004,9 hPa 0,0 l/m 0 min 0 min 220 W/m 16,1 km/h (3 Bft) 100,00 %
06.07.2021 10:48 19,4 C 19,4 C 19,5 C 91 % 1005,0 hPa 0,0 l/m 0 min 0 min 196 W/m 16,1 km/h (3 Bft) 97,14 %
06.07.2021 10:50 19,5 C 19,4 C 19,5 C 90 % 1005,0 hPa 0,0 l/m 0 min 0 min 203 W/m 12,9 km/h (3 Bft) 100,00 %
06.07.2021 10:52 19,5 C 19,4 C 19,5 C 90 % 1005,0 hPa 0,0 l/m 0 min 0 min 214 W/m 25,7 km/h (4 Bft) 96,36 %
06.07.2021 10:54 19,6 C 20,0 C 20,0 C 90 % 1005,0 hPa 0,0 l/m 0 min 0 min 248 W/m 12,9 km/h (3 Bft) 97,87 %
06.07.2021 10:56 19,6 C 20,0 C 20,0 C 90 % 1004,9 hPa 0,0 l/m 0 min 0 min 256 W/m 16,1 km/h (3 Bft) 98,00 %
06.07.2021 10:58 19,7 C 20,0 C 20,0 C 90 % 1004,9 hPa 0,0 l/m 0 min 0 min 274 W/m 12,9 km/h (3 Bft) 97,87 %
06.07.2021 11:00 19,8 C 20,0 C 20,0 C 90 % 1004,9 hPa 0,0 l/m 0 min 0 min 308 W/m 19,3 km/h (3 Bft) 97,14 %
06.07.2021 11:02 19,9 C 20,0 C 20,0 C 90 % 1004,9 hPa 0,0 l/m 0 min 0 min 318 W/m 12,9 km/h (3 Bft) 93,62 %
06.07.2021 11:04 19,9 C 20,6 C 20,0 C 90 % 1004,9 hPa 0,0 l/m 0 min 0 min 327 W/m 9,7 km/h (2 Bft) 95,74 %
06.07.2021 11:06 20,0 C 20,6 C 20,6 C 90 % 1004,9 hPa 0,0 l/m 0 min 0 min 312 W/m 19,3 km/h (3 Bft) 98,18 %
06.07.2021 11:08 20,0 C 20,6 C 20,0 C 90 % 1004,9 hPa 0,0 l/m 0 min 0 min 293 W/m 9,7 km/h (2 Bft) 97,87 %
06.07.2021 11:10 20,1 C 20,6 C 20,6 C 90 % 1004,9 hPa 0,0 l/m 0 min 0 min 279 W/m 9,7 km/h (2 Bft) 93,62 %
06.07.2021 11:12 20,1 C 20,6 C 20,6 C 90 % 1005,0 hPa 0,0 l/m 0 min 0 min 273 W/m 12,9 km/h (3 Bft) 89,80 %
06.07.2021 11:14 20,2 C 20,6 C 20,6 C 90 % 1005,0 hPa 0,0 l/m 0 min 0 min 267 W/m 16,1 km/h (3 Bft) 97,22 %
06.07.2021 11:16 20,3 C 20,6 C 20,6 C 89 % 1005,0 hPa 0,0 l/m 0 min 0 min 238 W/m 16,1 km/h (3 Bft) 91,30 %
06.07.2021 11:18 20,3 C 20,0 C 20,6 C 89 % 1005,0 hPa 0,0 l/m 0 min 0 min 218 W/m 16,1 km/h (3 Bft) 93,62 %
06.07.2021 11:20 20,3 C 20,0 C 20,0 C 89 % 1005,1 hPa 0,0 l/m 0 min 0 min 146 W/m 9,7 km/h (2 Bft) 96,43 %
06.07.2021 11:22 20,3 C 20,0 C 20,0 C 89 % 1005,2 hPa 0,0 l/m 0 min 0 min 106 W/m 16,1 km/h (3 Bft) 91,84 %
06.07.2021 11:24 20,3 C 20,0 C 20,0 C 89 % 1005,2 hPa 0,0 l/m 0 min 0 min 99 W/m 19,3 km/h (3 Bft) 97,22 %
06.07.2021 11:26 20,2 C 19,4 C 20,0 C 89 % 1005,2 hPa 0,0 l/m 0 min 0 min 127 W/m 22,5 km/h (4 Bft) 95,74 %
06.07.2021 11:28 20,2 C 19,4 C 20,0 C 89 % 1005,2 hPa 0,0 l/m 0 min 0 min 166 W/m 19,3 km/h (3 Bft) 96,36 %
06.07.2021 11:30 20,1 C 19,4 C 20,0 C 89 % 1005,3 hPa 0,0 l/m 0 min 0 min 135 W/m 19,3 km/h (3 Bft) 93,62 %
06.07.2021 11:32 20,1 C 19,4 C 20,0 C 89 % 1005,3 hPa 0,0 l/m 0 min 0 min 112 W/m 12,9 km/h (3 Bft) 92,00 %
06.07.2021 11:34 20,1 C 19,4 C 20,0 C 89 % 1005,3 hPa 0,0 l/m 0 min 0 min 133 W/m 16,1 km/h (3 Bft) 91,30 %
06.07.2021 11:36 20,1 C 19,4 C 20,0 C 89 % 1005,3 hPa 0,0 l/m 0 min 0 min 121 W/m 19,3 km/h (3 Bft) 95,74 %
06.07.2021 11:38 20,1 C 19,4 C 20,0 C 89 % 1005,4 hPa 0,0 l/m 0 min 0 min 148 W/m 16,1 km/h (3 Bft) 93,62 %
06.07.2021 11:40 20,1 C 19,4 C 20,0 C 89 % 1005,3 hPa 0,0 l/m 0 min 0 min 156 W/m 12,9 km/h (3 Bft) 95,74 %
06.07.2021 11:42 20,1 C 20,0 C 20,0 C 89 % 1005,4 hPa 0,0 l/m 0 min 0 min 184 W/m 12,9 km/h (3 Bft) 97,87 %
06.07.2021 11:44 20,1 C 20,0 C 20,0 C 89 % 1005,4 hPa 0,0 l/m 0 min 0 min 267 W/m 16,1 km/h (3 Bft) 97,87 %
06.07.2021 11:46 20,2 C 20,6 C 20,6 C 89 % 1005,4 hPa 0,0 l/m 0 min 0 min 323 W/m 12,9 km/h (3 Bft) 97,83 %
06.07.2021 11:48 20,3 C 20,6 C 20,6 C 89 % 1005,3 hPa 0,0 l/m 0 min 0 min 304 W/m 16,1 km/h (3 Bft) 97,87 %
06.07.2021 11:50 20,3 C 20,6 C 21,1 C 88 % 1005,4 hPa 0,0 l/m 0 min 0 min 328 W/m 29,0 km/h (5 Bft) 97,87 %
06.07.2021 11:52 20,3 C 21,1 C 21,1 C 83 % 1005,5 hPa 0,0 l/m 2 min 0 min 420 W/m 51,5 km/h (7 Bft) 95,74 %
06.07.2021 11:54 20,3 C 20,6 C 21,1 C 79 % 1005,5 hPa 0,0 l/m 2 min 0 min 465 W/m 51,5 km/h (7 Bft) 95,74 %
06.07.2021 11:56 20,4 C 20,6 C 21,1 C 78 % 1005,5 hPa 0,0 l/m 2 min 0 min 420 W/m 38,6 km/h (5 Bft) 97,87 %
06.07.2021 11:58 20,4 C 20,6 C 21,1 C 76 % 1005,6 hPa 0,0 l/m 0 min 0 min 362 W/m 32,2 km/h (5 Bft) 97,83 %
06.07.2021 12:00 20,5 C 20,6 C 21,1 C 76 % 1005,7 hPa 0,0 l/m 0 min 0 min 341 W/m 32,2 km/h (5 Bft) 97,87 %
06.07.2021 12:02 20,5 C 20,6 C 21,1 C 76 % 1005,6 hPa 0,0 l/m 0 min 0 min 347 W/m 22,5 km/h (4 Bft) 97,92 %
06.07.2021 12:04 20,5 C 21,7 C 22,3 C 76 % 1005,6 hPa 0,0 l/m 2 min 0 min 575 W/m 25,7 km/h (4 Bft) 95,74 %
06.07.2021 12:08 20,9 C 22,8 C 23,9 C 76 % 1005,7 hPa 0,0 l/m 4 min 0 min 832 W/m 35,4 km/h (5 Bft) 98,81 %
06.07.2021 12:10 21,0 C 22,8 C 25,0 C 75 % 1005,6 hPa 0,0 l/m 2 min 0 min 854 W/m 35,4 km/h (5 Bft) 100,00 %
06.07.2021 12:12 21,2 C 23,3 C 26,7 C 76 % 1005,6 hPa 0,0 l/m 2 min 0 min 1089 W/m 25,7 km/h (4 Bft) 97,87 %
06.07.2021 12:14 21,4 C 23,3 C 26,1 C 74 % 1005,7 hPa 0,0 l/m 2 min 0 min 1111 W/m 35,4 km/h (5 Bft) 100,00 %
06.07.2021 12:16 21,4 C 22,8 C 25,6 C 72 % 1005,6 hPa 0,0 l/m 2 min 0 min 936 W/m 41,8 km/h (6 Bft) 97,87 %
06.07.2021 12:18 21,5 C 22,8 C 26,7 C 72 % 1005,7 hPa 0,0 l/m 2 min 0 min 884 W/m 35,4 km/h (5 Bft) 100,00 %
06.07.2021 12:20 21,5 C 22,8 C 26,7 C 72 % 1005,6 hPa 0,0 l/m 2 min 0 min 910 W/m 41,8 km/h (6 Bft) 100,00 %
06.07.2021 12:22 21,6 C 23,3 C 27,3 C 72 % 1005,7 hPa 0,0 l/m 2 min 0 min 973 W/m 32,2 km/h (5 Bft) 100,00 %
06.07.2021 12:24 21,7 C 22,8 C 27,3 C 71 % 1005,7 hPa 0,0 l/m 2 min 0 min 977 W/m 51,5 km/h (7 Bft) 100,00 %
06.07.2021 12:26 21,8 C 22,8 C 25,0 C 71 % 1005,7 hPa 0,0 l/m 2 min 0 min 995 W/m 38,6 km/h (5 Bft) 97,83 %
06.07.2021 12:28 21,8 C 22,2 C 23,9 C 70 % 1005,8 hPa 0,0 l/m 0 min 0 min 305 W/m 38,6 km/h (5 Bft) 97,87 %
06.07.2021 12:30 21,7 C 22,2 C 23,9 C 71 % 1005,8 hPa 0,0 l/m 2 min 0 min 411 W/m 29,0 km/h (5 Bft) 100,00 %
06.07.2021 12:32 21,6 C 22,2 C 22,8 C 71 % 1005,8 hPa 0,0 l/m 0 min 0 min 348 W/m 45,1 km/h (6 Bft) 100,00 %
06.07.2021 12:34 21,6 C 21,7 C 22,3 C 70 % 1005,8 hPa 0,0 l/m 0 min 0 min 305 W/m 35,4 km/h (5 Bft) 100,00 %
06.07.2021 12:36 21,5 C 21,7 C 21,7 C 71 % 1005,9 hPa 0,0 l/m 0 min 0 min 277 W/m 38,6 km/h (5 Bft) 100,00 %
06.07.2021 12:38 21,5 C 21,1 C 21,1 C 71 % 1005,9 hPa 0,0 l/m 0 min 0 min 243 W/m 41,8 km/h (6 Bft) 100,00 %
06.07.2021 12:40 21,4 C 21,1 C 20,6 C 70 % 1005,9 hPa 0,0 l/m 0 min 0 min 272 W/m 38,6 km/h (5 Bft) 97,87 %
06.07.2021 12:42 21,3 C 21,1 C 20,6 C 71 % 1006,1 hPa 0,0 l/m 0 min 0 min 258 W/m 35,4 km/h (5 Bft) 100,00 %
06.07.2021 12:44 21,3 C 21,1 C 21,7 C 70 % 1006,0 hPa 0,0 l/m 0 min 0 min 273 W/m 45,1 km/h (6 Bft) 100,00 %
06.07.2021 12:46 21,3 C 21,7 C 23,4 C 71 % 1006,0 hPa 0,0 l/m 2 min 0 min 1096 W/m 29,0 km/h (5 Bft) 100,00 %
06.07.2021 12:48 21,3 C 21,7 C 22,8 C 71 % 1006,2 hPa 0,0 l/m 2 min 0 min 740 W/m 41,8 km/h (6 Bft) 100,00 %
06.07.2021 12:50 21,3 C 21,7 C 22,8 C 71 % 1006,0 hPa 0,0 l/m 0 min 0 min 323 W/m 38,6 km/h (5 Bft) 100,00 %
06.07.2021 12:52 21,3 C 21,7 C 22,8 C 71 % 1006,3 hPa 0,0 l/m 0 min 0 min 291 W/m 35,4 km/h (5 Bft) 100,00 %
06.07.2021 12:54 21,2 C 21,1 C 21,1 C 71 % 1006,1 hPa 0,0 l/m 0 min 0 min 226 W/m 35,4 km/h (5 Bft) 100,00 %
06.07.2021 12:56 21,2 C 21,1 C 21,1 C 72 % 1006,3 hPa 0,0 l/m 0 min 0 min 250 W/m 22,5 km/h (4 Bft) 100,00 %
06.07.2021 12:58 21,2 C 21,7 C 21,1 C 72 % 1006,3 hPa 0,0 l/m 0 min 0 min 346 W/m 32,2 km/h (5 Bft) 100,00 %
06.07.2021 13:00 21,2 C 21,7 C 22,8 C 73 % 1006,3 hPa 0,0 l/m 0 min 0 min 401 W/m 22,5 km/h (4 Bft) 100,00 %
06.07.2021 13:02 21,4 C 22,2 C 25,6 C 72 % 1006,4 hPa 0,0 l/m 2 min 0 min 866 W/m 38,6 km/h (5 Bft) 97,87 %
06.07.2021 13:04 21,5 C 22,8 C 26,1 C 71 % 1006,1 hPa 0,0 l/m 2 min 0 min 1076 W/m 32,2 km/h (5 Bft) 100,00 %
06.07.2021 13:06 21,7 C 23,3 C 26,7 C 72 % 1006,2 hPa 0,0 l/m 2 min 0 min 1076 W/m 22,5 km/h (4 Bft) 100,00 %
06.07.2021 13:08 22,0 C 23,3 C 28,9 C 71 % 1006,2 hPa 0,0 l/m 2 min 0 min 1092 W/m 32,2 km/h (5 Bft) 100,00 %
06.07.2021 13:10 22,2 C 23,9 C 30,6 C 70 % 1006,3 hPa 0,0 l/m 2 min 0 min 1114 W/m 35,4 km/h (5 Bft) 100,00 %
06.07.2021 13:12 22,5 C 23,9 C 30,6 C 67 % 1006,1 hPa 0,0 l/m 2 min 0 min 1150 W/m 45,1 km/h (6 Bft) 100,00 %
06.07.2021 13:14 22,6 C 23,9 C 30,0 C 66 % 1006,3 hPa 0,0 l/m 2 min 0 min 1197 W/m 29,0 km/h (5 Bft) 100,00 %
06.07.2021 13:16 22,8 C 23,9 C 30,0 C 64 % 1006,2 hPa 0,0 l/m 2 min 0 min 864 W/m 54,7 km/h (7 Bft) 97,87 %
06.07.2021 13:18 22,9 C 23,9 C 27,8 C 64 % 1006,2 hPa 0,0 l/m 2 min 0 min 864 W/m 54,7 km/h (7 Bft) 97,87 %
06.07.2021 13:20 22,9 C 23,9 C 27,3 C 64 % 1006,2 hPa 0,0 l/m 2 min 0 min 865 W/m 35,4 km/h (5 Bft) 100,00 %
06.07.2021 13:22 23,0 C 23,3 C 26,7 C 63 % 1006,1 hPa 0,0 l/m 2 min 0 min 865 W/m 61,2 km/h (7 Bft) 97,87 %
06.07.2021 13:24 22,9 C 23,3 C 25,0 C 63 % 1006,1 hPa 0,0 l/m 2 min 0 min 733 W/m 22,5 km/h (4 Bft) 100,00 %
06.07.2021 13:26 22,8 C 23,3 C 23,9 C 63 % 1006,1 hPa 0,0 l/m 0 min 0 min 338 W/m 29,0 km/h (5 Bft) 100,00 %
06.07.2021 13:28 22,9 C 23,9 C 27,3 C 65 % 1006,1 hPa 0,0 l/m 2 min 0 min 687 W/m 19,3 km/h (3 Bft) 100,00 %
06.07.2021 13:30 23,0 C 23,9 C 25,6 C 65 % 1006,0 hPa 0,0 l/m 2 min 0 min 584 W/m 22,5 km/h (4 Bft) 100,00 %
06.07.2021 13:32 23,0 C 23,9 C 26,7 C 64 % 1006,0 hPa 0,0 l/m 0 min 0 min 284 W/m 38,6 km/h (5 Bft) 95,74 %
06.07.2021 13:34 23,2 C 24,4 C 28,4 C 63 % 1005,9 hPa 0,0 l/m 0 min 0 min 288 W/m 22,5 km/h (4 Bft) 97,87 %
06.07.2021 13:36 23,3 C 24,4 C 26,7 C 63 % 1005,9 hPa 0,0 l/m 0 min 0 min 288 W/m 29,0 km/h (5 Bft) 95,65 %
06.07.2021 13:38 23,4 C 24,4 C 27,8 C 61 % 1006,0 hPa 0,0 l/m 0 min 0 min 288 W/m 35,4 km/h (5 Bft) 98,11 %
06.07.2021 13:40 23,4 C 24,4 C 27,8 C 61 % 1005,9 hPa 0,0 l/m 0 min 0 min 288 W/m 19,3 km/h (3 Bft) 97,87 %
06.07.2021 13:42 23,5 C 24,4 C 26,7 C 62 % 1005,9 hPa 0,0 l/m 0 min 0 min 288 W/m 22,5 km/h (4 Bft) 95,74 %
06.07.2021 13:44 23,5 C 24,4 C 27,8 C 62 % 1006,1 hPa 0,0 l/m 0 min 0 min 288 W/m 41,8 km/h (6 Bft) 95,12 %
06.07.2021 13:46 23,5 C 24,4 C 27,8 C 61 % 1005,8 hPa 0,0 l/m 2 min 0 min 1053 W/m 41,8 km/h (6 Bft) 97,87 %
06.07.2021 13:48 23,5 C 23,9 C 26,1 C 62 % 1006,0 hPa 0,0 l/m 0 min 0 min 345 W/m 29,0 km/h (5 Bft) 97,83 %
06.07.2021 13:50 23,4 C 23,9 C 24,5 C 62 % 1006,1 hPa 0,0 l/m 0 min 0 min 343 W/m 38,6 km/h (5 Bft) 97,87 %
06.07.2021 13:52 23,1 C 23,3 C 22,8 C 62 % 1006,0 hPa 0,0 l/m 0 min 0 min 341 W/m 61,2 km/h (7 Bft) 97,87 %
06.07.2021 13:54 23,0 C 22,8 C 22,3 C 62 % 1006,1 hPa 0,0 l/m 0 min 0 min 312 W/m 48,3 km/h (6 Bft) 95,74 %
06.07.2021 13:56 22,9 C 22,8 C 21,7 C 62 % 1006,2 hPa 0,0 l/m 0 min 0 min 306 W/m 38,6 km/h (5 Bft) 97,87 %
06.07.2021 13:58 22,9 C 22,8 C 21,7 C 62 % 1006,1 hPa 0,0 l/m 0 min 0 min 280 W/m 25,7 km/h (4 Bft) 96,36 %
06.07.2021 14:00 22,9 C 23,3 C 21,7 C 62 % 1006,2 hPa 0,0 l/m 0 min 0 min 260 W/m 41,8 km/h (6 Bft) 98,00 %
06.07.2021 14:02 22,9 C 23,3 C 22,3 C 62 % 1006,1 hPa 0,0 l/m 0 min 0 min 409 W/m 25,7 km/h (4 Bft) 97,87 %
06.07.2021 14:04 23,0 C 23,3 C 21,7 C 63 % 1006,2 hPa 0,0 l/m 2 min 0 min 452 W/m 32,2 km/h (5 Bft) 96,88 %
06.07.2021 14:06 22,9 C 23,3 C 21,7 C 62 % 1006,3 hPa 0,0 l/m 0 min 0 min 291 W/m 45,1 km/h (6 Bft) 98,21 %
06.07.2021 14:08 22,9 C 23,3 C 21,7 C 62 % 1006,3 hPa 0,0 l/m 0 min 0 min 308 W/m 35,4 km/h (5 Bft) 95,92 %
06.07.2021 14:10 22,9 C 23,9 C 21,7 C 62 % 1006,3 hPa 0,0 l/m 0 min 0 min 308 W/m 38,6 km/h (5 Bft) 95,74 %
06.07.2021 14:12 23,0 C 23,3 C 21,7 C 62 % 1006,4 hPa 0,0 l/m 0 min 0 min 308 W/m 45,1 km/h (6 Bft) 93,62 %
06.07.2021 14:14 22,9 C 23,3 C 21,1 C 61 % 1006,3 hPa 0,2 l/m 0 min 0 min 353 W/m 45,1 km/h (6 Bft) 100,00 %
06.07.2021 14:16 23,0 C 23,9 C 21,7 C 62 % 1006,5 hPa 0,0 l/m 2 min 0 min 747 W/m 32,2 km/h (5 Bft) 95,74 %
06.07.2021 14:18 23,1 C 25,0 C 21,7 C 63 % 1006,2 hPa 0,0 l/m 2 min 0 min 1038 W/m 29,0 km/h (5 Bft) 96,43 %
06.07.2021 14:20 23,3 C 24,4 C 21,7 C 62 % 1006,2 hPa 0,0 l/m 2 min 0 min 708 W/m 35,4 km/h (5 Bft) 97,96 %
06.07.2021 14:22 23,4 C 24,4 C 21,7 C 62 % 1006,2 hPa 0,0 l/m 0 min 0 min 313 W/m 22,5 km/h (4 Bft) 94,44 %
06.07.2021 14:24 23,4 C 24,4 C 21,7 C 61 % 1006,4 hPa 0,0 l/m 0 min 0 min 395 W/m 38,6 km/h (5 Bft) 94,23 %
06.07.2021 14:26 23,4 C 24,4 C 21,7 C 60 % 1006,4 hPa 0,0 l/m 0 min 0 min 399 W/m 29,0 km/h (5 Bft) 94,00 %
06.07.2021 14:28 23,4 C 24,4 C 21,7 C 60 % 1006,4 hPa 0,0 l/m 0 min 0 min 399 W/m 35,4 km/h (5 Bft) 98,00 %
06.07.2021 14:30 23,4 C 24,4 C 21,7 C 60 % 1006,3 hPa 0,0 l/m 2 min 0 min 917 W/m 38,6 km/h (5 Bft) 97,14 %
06.07.2021 14:32 23,5 C 24,4 C 21,7 C 61 % 1006,5 hPa 0,0 l/m 2 min 0 min 1085 W/m 35,4 km/h (5 Bft) 98,11 %
06.07.2021 14:34 23,5 C 24,4 C 21,7 C 60 % 1006,4 hPa 0,0 l/m 2 min 0 min 1085 W/m 64,4 km/h (8 Bft) 95,92 %
06.07.2021 14:36 23,5 C 23,9 C 21,1 C 59 % 1006,5 hPa 0,0 l/m 2 min 0 min 1085 W/m 54,7 km/h (7 Bft) 96,00 %
06.07.2021 14:38 23,3 C 23,3 C 21,1 C 59 % 1006,5 hPa 0,0 l/m 2 min 0 min 717 W/m 35,4 km/h (5 Bft) 96,08 %
06.07.2021 14:40 23,2 C 23,3 C 21,1 C 60 % 1006,4 hPa 0,0 l/m 0 min 0 min 384 W/m 45,1 km/h (6 Bft) 95,74 %
06.07.2021 14:42 23,2 C 23,3 C 21,1 C 60 % 1006,5 hPa 0,0 l/m 0 min 0 min 329 W/m 41,8 km/h (6 Bft) 97,83 %
06.07.2021 14:44 23,1 C 22,8 C 20,6 C 60 % 1006,4 hPa 0,0 l/m 0 min 0 min 226 W/m 41,8 km/h (6 Bft) 94,74 %
06.07.2021 14:46 23,0 C 23,3 C 20,6 C 60 % 1006,6 hPa 0,0 l/m 0 min 0 min 265 W/m 35,4 km/h (5 Bft) 95,65 %
06.07.2021 14:48 23,0 C 23,9 C 21,1 C 60 % 1006,6 hPa 0,0 l/m 2 min 0 min 913 W/m 45,1 km/h (6 Bft) 95,74 %
06.07.2021 14:50 23,1 C 23,9 C 21,1 C 61 % 1006,7 hPa 0,0 l/m 2 min 0 min 809 W/m 45,1 km/h (6 Bft) 95,74 %
06.07.2021 14:52 23,1 C 23,3 C 21,1 C 60 % 1006,8 hPa 0,0 l/m 0 min 0 min 297 W/m 41,8 km/h (6 Bft) 95,74 %
06.07.2021 14:54 23,0 C 22,8 C 20,6 C 62 % 1007,0 hPa 0,0 l/m 0 min 0 min 291 W/m 57,9 km/h (7 Bft) 95,74 %
06.07.2021 14:56 22,9 C 22,8 C 20,6 C 63 % 1007,1 hPa 0,0 l/m 0 min 0 min 290 W/m 35,4 km/h (5 Bft) 94,34 %
06.07.2021 14:58 22,7 C 22,8 C 20,6 C 62 % 1007,0 hPa 0,0 l/m 0 min 0 min 296 W/m 35,4 km/h (5 Bft) 95,35 %
06.07.2021 15:00 22,6 C 22,8 C 20,6 C 64 % 1007,1 hPa 0,0 l/m 0 min 0 min 321 W/m 35,4 km/h (5 Bft) 94,44 %
06.07.2021 15:02 22,6 C 23,3 C 20,6 C 64 % 1007,1 hPa 0,0 l/m 2 min 0 min 469 W/m 38,6 km/h (5 Bft) 95,35 %
06.07.2021 15:04 22,7 C 23,3 C 20,6 C 63 % 1007,3 hPa 0,0 l/m 2 min 0 min 578 W/m 29,0 km/h (5 Bft) 96,00 %
06.07.2021 15:06 22,7 C 23,3 C 20,6 C 64 % 1007,3 hPa 0,0 l/m 2 min 0 min 443 W/m 32,2 km/h (5 Bft) 97,14 %
06.07.2021 15:08 22,8 C 23,9 C 20,6 C 64 % 1007,3 hPa 0,0 l/m 0 min 0 min 371 W/m 32,2 km/h (5 Bft) 97,87 %
06.07.2021 15:10 22,8 C 23,9 C 20,6 C 63 % 1007,3 hPa 0,0 l/m 0 min 0 min 371 W/m 35,4 km/h (5 Bft) 97,83 %
06.07.2021 15:12 22,9 C 24,4 C 20,6 C 62 % 1007,4 hPa 0,0 l/m 2 min 0 min 500 W/m 32,2 km/h (5 Bft) 97,87 %
06.07.2021 15:14 23,1 C 25,0 C 20,6 C 63 % 1007,3 hPa 0,0 l/m 2 min 0 min 826 W/m 32,2 km/h (5 Bft) 95,74 %
06.07.2021 15:16 23,3 C 25,0 C 20,6 C 60 % 1007,2 hPa 0,0 l/m 2 min 0 min 996 W/m 32,2 km/h (5 Bft) 98,15 %
06.07.2021 15:18 23,4 C 25,6 C 21,1 C 60 % 1007,3 hPa 0,0 l/m 2 min 0 min 928 W/m 32,2 km/h (5 Bft) 97,96 %
06.07.2021 15:20 23,5 C 25,6 C 21,1 C 61 % 1007,5 hPa 0,0 l/m 2 min 0 min 982 W/m 32,2 km/h (5 Bft) 97,96 %
06.07.2021 15:22 23,6 C 25,6 C 21,1 C 60 % 1007,3 hPa 0,0 l/m 2 min 0 min 868 W/m 25,7 km/h (4 Bft) 95,74 %
06.07.2021 15:24 23,6 C 24,4 C 21,1 C 59 % 1007,3 hPa 0,0 l/m 0 min 0 min 297 W/m 32,2 km/h (5 Bft) 97,14 %
06.07.2021 15:26 23,4 C 23,3 C 20,6 C 58 % 1007,5 hPa 0,0 l/m 0 min 0 min 307 W/m 54,7 km/h (7 Bft) 96,30 %
06.07.2021 15:28 23,3 C 23,9 C 20,6 C 59 % 1007,3 hPa 0,0 l/m 2 min 0 min 579 W/m 54,7 km/h (7 Bft) 97,87 %
06.07.2021 15:30 23,3 C 23,9 C 21,1 C 60 % 1007,4 hPa 0,0 l/m 2 min 0 min 961 W/m 41,8 km/h (6 Bft) 97,96 %
06.07.2021 15:32 23,3 C 23,9 C 21,1 C 60 % 1007,3 hPa 0,0 l/m 2 min 0 min 464 W/m 25,7 km/h (4 Bft) 97,96 %
06.07.2021 15:34 23,3 C 23,9 C 21,1 C 60 % 1007,3 hPa 0,0 l/m 2 min 0 min 400 W/m 61,2 km/h (7 Bft) 100,00 %
06.07.2021 15:36 23,1 C 23,9 C 20,6 C 60 % 1007,5 hPa 0,0 l/m 0 min 0 min 306 W/m 38,6 km/h (5 Bft) 100,00 %
06.07.2021 15:38 23,1 C 23,9 C 20,6 C 61 % 1007,5 hPa 0,0 l/m 0 min 0 min 314 W/m 35,4 km/h (5 Bft) 96,00 %
06.07.2021 15:40 23,1 C 23,3 C 20,6 C 60 % 1007,4 hPa 0,0 l/m 0 min 0 min 367 W/m 41,8 km/h (6 Bft) 100,00 %
06.07.2021 15:42 23,1 C 23,3 C 20,6 C 61 % 1007,5 hPa 0,0 l/m 2 min 0 min 420 W/m 35,4 km/h (5 Bft) 100,00 %
06.07.2021 15:44 23,0 C 22,8 C 20,6 C 61 % 1007,6 hPa 0,0 l/m 0 min 0 min 321 W/m 51,5 km/h (7 Bft) 100,00 %
06.07.2021 15:46 22,8 C 22,2 C 20,0 C 61 % 1007,6 hPa 0,0 l/m 0 min 0 min 171 W/m 35,4 km/h (5 Bft) 98,15 %
06.07.2021 15:48 22,6 C 22,2 C 20,0 C 61 % 1007,8 hPa 0,0 l/m 0 min 0 min 126 W/m 45,1 km/h (6 Bft) 100,00 %
06.07.2021 15:50 22,4 C 21,7 C 19,5 C 62 % 1007,7 hPa 0,0 l/m 0 min 0 min 139 W/m 51,5 km/h (7 Bft) 100,00 %
06.07.2021 15:52 22,3 C 21,7 C 19,5 C 63 % 1007,8 hPa 0,0 l/m 0 min 2 min 147 W/m 38,6 km/h (5 Bft) 100,00 %
06.07.2021 15:54 22,2 C 21,7 C 19,5 C 63 % 1007,8 hPa 0,0 l/m 0 min 2 min 272 W/m 45,1 km/h (6 Bft) 100,00 %
06.07.2021 15:56 22,1 C 22,2 C 19,5 C 63 % 1008,0 hPa 0,0 l/m 0 min 0 min 349 W/m 29,0 km/h (5 Bft) 100,00 %
06.07.2021 15:58 22,1 C 22,2 C 19,5 C 62 % 1007,9 hPa 0,0 l/m 0 min 0 min 284 W/m 35,4 km/h (5 Bft) 100,00 %
06.07.2021 16:00 22,1 C 22,2 C 19,5 C 61 % 1008,0 hPa 0,0 l/m 0 min 0 min 282 W/m 57,9 km/h (7 Bft) 100,00 %
06.07.2021 16:02 22,0 C 22,2 C 19,5 C 62 % 1008,0 hPa 0,0 l/m 0 min 0 min 333 W/m 32,2 km/h (5 Bft) 100,00 %
06.07.2021 16:04 22,0 C 22,2 C 20,0 C 62 % 1008,1 hPa 0,0 l/m 2 min 0 min 476 W/m 41,8 km/h (6 Bft) 97,37 %
06.07.2021 16:06 22,0 C 22,2 C 20,0 C 62 % 1008,1 hPa 0,0 l/m 2 min 0 min 367 W/m 22,5 km/h (4 Bft) 97,96 %
06.07.2021 16:08 22,0 C 22,8 C 20,0 C 62 % 1008,1 hPa 0,0 l/m 0 min 0 min 362 W/m 22,5 km/h (4 Bft) 95,92 %
06.07.2021 16:10 22,1 C 22,8 C 20,0 C 63 % 1008,0 hPa 0,0 l/m 2 min 0 min 378 W/m 19,3 km/h (3 Bft) 97,87 %
06.07.2021 16:12 22,1 C 22,8 C 20,0 C 60 % 1008,1 hPa 0,0 l/m 2 min 0 min 436 W/m 51,5 km/h (7 Bft) 97,87 %
06.07.2021 16:14 22,1 C 23,3 C 20,0 C 61 % 1008,1 hPa 0,0 l/m 2 min 0 min 434 W/m 25,7 km/h (4 Bft) 97,62 %
06.07.2021 16:16 22,2 C 23,9 C 20,0 C 62 % 1008,2 hPa 0,0 l/m 2 min 0 min 434 W/m 29,0 km/h (5 Bft) 96,00 %
06.07.2021 16:18 22,4 C 23,3 C 20,0 C 62 % 1008,4 hPa 0,0 l/m 2 min 0 min 391 W/m 38,6 km/h (5 Bft) 97,92 %
06.07.2021 16:20 22,4 C 22,8 C 20,0 C 63 % 1008,4 hPa 0,0 l/m 0 min 0 min 317 W/m 32,2 km/h (5 Bft) 97,87 %
06.07.2021 16:22 22,3 C 22,8 C 20,0 C 61 % 1008,5 hPa 0,0 l/m 2 min 0 min 354 W/m 45,1 km/h (6 Bft) 97,62 %
06.07.2021 16:24 22,3 C 22,8 C 20,0 C 61 % 1008,4 hPa 0,0 l/m 2 min 0 min 424 W/m 48,3 km/h (6 Bft) 97,87 %
06.07.2021 16:26 22,2 C 22,8 C 20,0 C 62 % 1008,4 hPa 0,0 l/m 2 min 0 min 432 W/m 32,2 km/h (5 Bft) 96,00 %
06.07.2021 16:28 22,2 C 22,8 C 20,0 C 62 % 1008,5 hPa 0,0 l/m 2 min 0 min 394 W/m 22,5 km/h (4 Bft) 97,92 %
06.07.2021 16:30 22,1 C 22,8 C 20,0 C 61 % 1008,4 hPa 0,0 l/m 2 min 0 min 398 W/m 32,2 km/h (5 Bft) 97,87 %
06.07.2021 16:32 22,1 C 22,8 C 20,0 C 62 % 1008,5 hPa 0,0 l/m 2 min 0 min 412 W/m 41,8 km/h (6 Bft) 97,62 %
06.07.2021 16:34 22,2 C 22,8 C 20,0 C 62 % 1008,4 hPa 0,0 l/m 2 min 0 min 379 W/m 16,1 km/h (3 Bft) 98,08 %
06.07.2021 16:36 22,2 C 22,8 C 20,0 C 62 % 1008,5 hPa 0,0 l/m 0 min 0 min 333 W/m 19,3 km/h (3 Bft) 97,87 %
06.07.2021 16:38 22,1 C 22,8 C 19,5 C 62 % 1008,5 hPa 0,0 l/m 2 min 0 min 361 W/m 25,7 km/h (4 Bft) 97,87 %
06.07.2021 16:40 22,1 C 22,2 C 19,5 C 62 % 1008,5 hPa 0,0 l/m 2 min 0 min 375 W/m 25,7 km/h (4 Bft) 97,14 %
06.07.2021 16:42 22,0 C 22,2 C 19,5 C 61 % 1008,6 hPa 0,0 l/m 2 min 0 min 470 W/m 45,1 km/h (6 Bft) 97,87 %
06.07.2021 16:44 22,0 C 22,2 C 19,5 C 62 % 1008,5 hPa 0,0 l/m 2 min 0 min 482 W/m 29,0 km/h (5 Bft) 96,36 %
06.07.2021 16:46 22,0 C 22,2 C 19,5 C 63 % 1008,5 hPa 0,0 l/m 2 min 0 min 344 W/m 29,0 km/h (5 Bft) 100,00 %
06.07.2021 16:48 21,9 C 23,9 C 19,5 C 62 % 1008,5 hPa 0,0 l/m 2 min 0 min 459 W/m 19,3 km/h (3 Bft) 98,00 %
06.07.2021 16:50 22,0 C 25,0 C 20,0 C 64 % 1008,6 hPa 0,0 l/m 2 min 0 min 679 W/m 16,1 km/h (3 Bft) 100,00 %
06.07.2021 16:52 22,1 C 25,6 C 20,0 C 64 % 1008,7 hPa 0,0 l/m 2 min 0 min 744 W/m 16,1 km/h (3 Bft) 100,00 %
06.07.2021 16:54 22,3 C 26,1 C 20,0 C 65 % 1008,6 hPa 0,0 l/m 2 min 0 min 669 W/m 22,5 km/h (4 Bft) 100,00 %
06.07.2021 16:56 22,4 C 26,1 C 20,0 C 65 % 1008,7 hPa 0,0 l/m 2 min 0 min 825 W/m 19,3 km/h (3 Bft) 100,00 %
06.07.2021 16:58 22,5 C 25,6 C 20,0 C 65 % 1008,7 hPa 0,0 l/m 2 min 0 min 842 W/m 19,3 km/h (3 Bft) 100,00 %
06.07.2021 17:00 22,5 C 25,0 C 20,0 C 64 % 1008,6 hPa 0,0 l/m 2 min 0 min 549 W/m 22,5 km/h (4 Bft) 100,00 %
06.07.2021 17:02 22,5 C 25,6 C 20,0 C 63 % 1008,7 hPa 0,0 l/m 2 min 0 min 606 W/m 25,7 km/h (4 Bft) 100,00 %
06.07.2021 17:04 22,4 C 25,0 C 20,0 C 63 % 1008,7 hPa 0,0 l/m 2 min 0 min 772 W/m 22,5 km/h (4 Bft) 100,00 %
06.07.2021 17:06 22,5 C 26,1 C 20,0 C 64 % 1008,7 hPa 0,0 l/m 2 min 0 min 814 W/m 19,3 km/h (3 Bft) 100,00 %
06.07.2021 17:08 22,6 C 26,7 C 20,6 C 64 % 1008,7 hPa 0,0 l/m 2 min 0 min 768 W/m 19,3 km/h (3 Bft) 100,00 %
06.07.2021 17:10 22,7 C 27,2 C 20,6 C 64 % 1008,6 hPa 0,0 l/m 2 min 0 min 739 W/m 16,1 km/h (3 Bft) 100,00 %
06.07.2021 17:12 22,8 C 26,7 C 20,6 C 63 % 1008,8 hPa 0,0 l/m 2 min 0 min 709 W/m 29,0 km/h (5 Bft) 97,87 %
06.07.2021 17:14 22,7 C 26,7 C 20,0 C 62 % 1008,6 hPa 0,0 l/m 2 min 0 min 694 W/m 25,7 km/h (4 Bft) 97,96 %
06.07.2021 17:16 22,8 C 26,7 C 20,6 C 63 % 1008,6 hPa 0,0 l/m 2 min 0 min 681 W/m 22,5 km/h (4 Bft) 100,00 %
06.07.2021 17:18 22,6 C 26,1 C 20,0 C 62 % 1008,7 hPa 0,0 l/m 2 min 0 min 672 W/m 19,3 km/h (3 Bft) 100,00 %
06.07.2021 17:20 22,6 C 26,1 C 20,0 C 62 % 1008,7 hPa 0,0 l/m 2 min 0 min 690 W/m 22,5 km/h (4 Bft) 100,00 %
06.07.2021 17:22 22,6 C 26,1 C 20,0 C 62 % 1008,7 hPa 0,0 l/m 2 min 0 min 685 W/m 16,1 km/h (3 Bft) 100,00 %
06.07.2021 17:24 22,6 C 26,1 C 20,0 C 61 % 1008,8 hPa 0,0 l/m 2 min 0 min 670 W/m 22,5 km/h (4 Bft) 100,00 %
06.07.2021 17:26 22,5 C 25,6 C 20,0 C 62 % 1008,7 hPa 0,0 l/m 2 min 0 min 679 W/m 19,3 km/h (3 Bft) 100,00 %
06.07.2021 17:28 22,5 C 23,9 C 20,0 C 61 % 1008,7 hPa 0,0 l/m 2 min 0 min 667 W/m 29,0 km/h (5 Bft) 100,00 %
06.07.2021 17:30 22,4 C 22,8 C 19,5 C 62 % 1008,8 hPa 0,0 l/m 0 min 0 min 181 W/m 16,1 km/h (3 Bft) 97,37 %
06.07.2021 17:32 22,2 C 22,8 C 19,5 C 63 % 1008,7 hPa 0,0 l/m 0 min 0 min 264 W/m 16,1 km/h (3 Bft) 97,96 %
06.07.2021 17:34 22,1 C 23,9 C 19,5 C 63 % 1008,7 hPa 0,0 l/m 0 min 0 min 237 W/m 16,1 km/h (3 Bft) 95,74 %
06.07.2021 17:36 22,2 C 24,4 C 20,0 C 64 % 1008,7 hPa 0,0 l/m 2 min 0 min 555 W/m 12,9 km/h (3 Bft) 96,30 %
06.07.2021 17:38 22,3 C 23,3 C 20,0 C 62 % 1008,6 hPa 0,0 l/m 0 min 0 min 254 W/m 35,4 km/h (5 Bft) 100,00 %
06.07.2021 17:40 22,2 C 22,8 C 19,5 C 63 % 1008,7 hPa 0,0 l/m 0 min 0 min 115 W/m 19,3 km/h (3 Bft) 97,83 %
06.07.2021 17:42 22,1 C 22,2 C 19,5 C 63 % 1008,7 hPa 0,0 l/m 0 min 0 min 103 W/m 19,3 km/h (3 Bft) 97,92 %
06.07.2021 17:44 22,0 C 21,7 C 18,9 C 64 % 1008,6 hPa 0,0 l/m 0 min 0 min 129 W/m 16,1 km/h (3 Bft) 95,74 %
06.07.2021 17:46 21,9 C 21,7 C 18,9 C 64 % 1008,6 hPa 0,0 l/m 0 min 0 min 169 W/m 16,1 km/h (3 Bft) 97,87 %
06.07.2021 17:48 21,8 C 21,7 C 18,9 C 64 % 1008,6 hPa 0,0 l/m 0 min 0 min 201 W/m 29,0 km/h (5 Bft) 95,35 %
06.07.2021 17:50 21,8 C 22,2 C 18,9 C 63 % 1008,6 hPa 0,0 l/m 0 min 0 min 220 W/m 19,3 km/h (3 Bft) 98,00 %
06.07.2021 17:52 21,7 C 22,2 C 18,9 C 62 % 1008,6 hPa 0,0 l/m 0 min 0 min 231 W/m 29,0 km/h (5 Bft) 97,87 %
06.07.2021 17:54 21,6 C 22,2 C 18,9 C 62 % 1008,7 hPa 0,0 l/m 0 min 0 min 216 W/m 16,1 km/h (3 Bft) 97,87 %
06.07.2021 17:56 21,6 C 21,7 C 18,9 C 62 % 1008,6 hPa 0,0 l/m 0 min 0 min 136 W/m 19,3 km/h (3 Bft) 95,45 %
06.07.2021 17:58 21,6 C 21,7 C 18,9 C 62 % 1008,5 hPa 0,0 l/m 0 min 0 min 114 W/m 19,3 km/h (3 Bft) 96,00 %
06.07.2021 18:00 21,5 C 21,1 C 18,9 C 62 % 1008,5 hPa 0,0 l/m 0 min 0 min 147 W/m 12,9 km/h (3 Bft) 94,00 %
06.07.2021 18:02 21,5 C 21,7 C 18,9 C 63 % 1008,5 hPa 0,0 l/m 0 min 0 min 196 W/m 16,1 km/h (3 Bft) 92,11 %
06.07.2021 18:04 21,5 C 21,7 C 18,9 C 62 % 1008,6 hPa 0,0 l/m 2 min 0 min 265 W/m 22,5 km/h (4 Bft) 95,92 %
06.07.2021 18:08 21,6 C 22,8 C 18,9 C 62 % 1008,7 hPa 0,0 l/m 4 min 0 min 312 W/m 35,4 km/h (5 Bft) 95,10 %
06.07.2021 18:10 21,6 C 22,2 C 19,5 C 62 % 1008,6 hPa 0,0 l/m 2 min 0 min 272 W/m 25,7 km/h (4 Bft) 91,49 %
06.07.2021 18:12 21,8 C 22,8 C 19,5 C 62 % 1008,6 hPa 0,0 l/m 0 min 0 min 237 W/m 19,3 km/h (3 Bft) 95,65 %
06.07.2021 18:14 21,8 C 22,2 C 18,9 C 60 % 1008,8 hPa 0,0 l/m 0 min 0 min 215 W/m 48,3 km/h (6 Bft) 97,37 %
06.07.2021 18:16 21,8 C 22,8 C 18,9 C 61 % 1008,6 hPa 0,0 l/m 2 min 0 min 246 W/m 35,4 km/h (5 Bft) 93,75 %
06.07.2021 18:18 21,8 C 22,2 C 18,9 C 61 % 1008,8 hPa 0,0 l/m 0 min 0 min 225 W/m 45,1 km/h (6 Bft) 94,00 %
06.07.2021 18:20 21,8 C 22,2 C 19,5 C 61 % 1008,6 hPa 0,0 l/m 2 min 0 min 272 W/m 22,5 km/h (4 Bft) 95,74 %
06.07.2021 18:22 21,8 C 23,3 C 19,5 C 61 % 1008,6 hPa 0,0 l/m 2 min 0 min 277 W/m 29,0 km/h (5 Bft) 93,62 %
06.07.2021 18:24 21,9 C 24,4 C 19,5 C 62 % 1008,8 hPa 0,0 l/m 2 min 0 min 541 W/m 38,6 km/h (5 Bft) 97,73 %
06.07.2021 18:26 22,0 C 23,9 C 19,5 C 60 % 1008,9 hPa 0,0 l/m 2 min 0 min 621 W/m 35,4 km/h (5 Bft) 97,83 %
06.07.2021 18:28 22,0 C 23,3 C 19,5 C 60 % 1008,8 hPa 0,0 l/m 2 min 0 min 234 W/m 35,4 km/h (5 Bft) 98,00 %
06.07.2021 18:30 22,0 C 22,8 C 19,5 C 61 % 1008,9 hPa 0,0 l/m 0 min 0 min 223 W/m 16,1 km/h (3 Bft) 97,87 %
06.07.2021 18:32 22,0 C 22,2 C 19,5 C 60 % 1009,2 hPa 0,0 l/m 0 min 0 min 211 W/m 48,3 km/h (6 Bft) 97,87 %
06.07.2021 18:34 22,0 C 22,2 C 19,5 C 60 % 1008,8 hPa 0,0 l/m 2 min 0 min 230 W/m 32,2 km/h (5 Bft) 97,87 %
06.07.2021 18:36 21,9 C 22,2 C 19,5 C 61 % 1008,9 hPa 0,0 l/m 2 min 0 min 286 W/m 29,0 km/h (5 Bft) 97,73 %
06.07.2021 18:38 21,9 C 22,2 C 19,5 C 61 % 1009,0 hPa 0,0 l/m 2 min 0 min 230 W/m 35,4 km/h (5 Bft) 95,92 %
06.07.2021 18:40 21,9 C 21,7 C 19,5 C 61 % 1008,8 hPa 0,0 l/m 0 min 0 min 170 W/m 22,5 km/h (4 Bft) 95,74 %
06.07.2021 18:42 21,9 C 21,7 C 19,5 C 61 % 1008,8 hPa 0,0 l/m 0 min 0 min 162 W/m 32,2 km/h (5 Bft) 95,74 %
06.07.2021 18:44 21,9 C 21,1 C 18,9 C 61 % 1008,9 hPa 0,0 l/m 0 min 0 min 129 W/m 25,7 km/h (4 Bft) 95,45 %
06.07.2021 18:46 21,8 C 21,1 C 18,9 C 61 % 1009,0 hPa 0,0 l/m 0 min 0 min 124 W/m 22,5 km/h (4 Bft) 92,00 %
06.07.2021 18:48 21,7 C 21,7 C 18,9 C 61 % 1008,9 hPa 0,0 l/m 0 min 0 min 174 W/m 29,0 km/h (5 Bft) 95,74 %
06.07.2021 18:50 21,7 C 21,7 C 18,9 C 62 % 1009,0 hPa 0,0 l/m 2 min 0 min 210 W/m 35,4 km/h (5 Bft) 95,65 %
06.07.2021 18:52 21,6 C 21,7 C 18,9 C 62 % 1009,0 hPa 0,0 l/m 2 min 0 min 223 W/m 19,3 km/h (3 Bft) 97,87 %
06.07.2021 18:54 21,6 C 21,7 C 18,9 C 62 % 1009,0 hPa 0,0 l/m 2 min 0 min 243 W/m 22,5 km/h (4 Bft) 97,73 %
06.07.2021 18:56 21,7 C 21,7 C 18,9 C 62 % 1009,0 hPa 0,0 l/m 2 min 0 min 219 W/m 25,7 km/h (4 Bft) 98,00 %
06.07.2021 18:58 21,7 C 21,7 C 18,9 C 62 % 1009,0 hPa 0,0 l/m 0 min 0 min 187 W/m 25,7 km/h (4 Bft) 98,00 %
06.07.2021 19:00 21,7 C 21,7 C 18,9 C 61 % 1009,0 hPa 0,0 l/m 2 min 0 min 203 W/m 35,4 km/h (5 Bft) 97,14 %
06.07.2021 19:02 21,7 C 21,7 C 18,9 C 61 % 1009,0 hPa 0,0 l/m 0 min 0 min 184 W/m 22,5 km/h (4 Bft) 98,18 %
06.07.2021 19:04 21,8 C 22,2 C 19,5 C 62 % 1009,0 hPa 0,0 l/m 2 min 0 min 204 W/m 19,3 km/h (3 Bft) 96,00 %
06.07.2021 19:06 21,8 C 22,2 C 19,5 C 62 % 1009,0 hPa 0,0 l/m 2 min 0 min 282 W/m 29,0 km/h (5 Bft) 98,00 %
06.07.2021 19:08 21,9 C 22,2 C 19,5 C 61 % 1009,1 hPa 0,0 l/m 0 min 0 min 163 W/m 29,0 km/h (5 Bft) 97,87 %
06.07.2021 19:10 21,8 C 22,2 C 19,5 C 61 % 1009,0 hPa 0,0 l/m 2 min 0 min 192 W/m 29,0 km/h (5 Bft) 97,83 %
06.07.2021 19:12 21,8 C 22,8 C 19,5 C 61 % 1009,1 hPa 0,0 l/m 2 min 0 min 339 W/m 38,6 km/h (5 Bft) 94,87 %
06.07.2021 19:14 21,9 C 22,8 C 19,5 C 61 % 1009,3 hPa 0,0 l/m 2 min 0 min 327 W/m 29,0 km/h (5 Bft) 97,83 %
06.07.2021 19:16 21,9 C 22,2 C 19,5 C 61 % 1009,2 hPa 0,0 l/m 0 min 0 min 154 W/m 22,5 km/h (4 Bft) 98,21 %
06.07.2021 19:18 21,9 C 22,2 C 19,5 C 62 % 1009,2 hPa 0,0 l/m 0 min 0 min 137 W/m 22,5 km/h (4 Bft) 97,37 %
06.07.2021 19:20 21,9 C 22,2 C 18,9 C 62 % 1009,2 hPa 0,0 l/m 0 min 0 min 163 W/m 9,7 km/h (2 Bft) 98,00 %
06.07.2021 19:22 21,9 C 22,2 C 18,9 C 62 % 1009,3 hPa 0,0 l/m 0 min 0 min 150 W/m 25,7 km/h (4 Bft) 97,87 %
06.07.2021 19:24 21,9 C 22,2 C 18,9 C 62 % 1009,4 hPa 0,0 l/m 2 min 0 min 174 W/m 22,5 km/h (4 Bft) 100,00 %
06.07.2021 19:26 21,9 C 22,2 C 18,9 C 62 % 1009,3 hPa 0,0 l/m 2 min 0 min 244 W/m 19,3 km/h (3 Bft) 100,00 %
06.07.2021 19:28 21,9 C 21,7 C 18,9 C 62 % 1009,4 hPa 0,0 l/m 2 min 0 min 170 W/m 16,1 km/h (3 Bft) 100,00 %
06.07.2021 19:30 21,9 C 21,7 C 18,9 C 62 % 1009,5 hPa 0,0 l/m 0 min 0 min 143 W/m 6,4 km/h (2 Bft) 100,00 %
06.07.2021 19:32 21,9 C 21,7 C 18,9 C 62 % 1009,4 hPa 0,0 l/m 2 min 0 min 157 W/m 22,5 km/h (4 Bft) 100,00 %
06.07.2021 19:34 21,9 C 21,7 C 18,9 C 62 % 1009,5 hPa 0,0 l/m 2 min 0 min 166 W/m 19,3 km/h (3 Bft) 100,00 %
06.07.2021 19:36 21,9 C 21,7 C 18,9 C 62 % 1009,5 hPa 0,0 l/m 2 min 0 min 184 W/m 19,3 km/h (3 Bft) 98,08 %
06.07.2021 19:38 21,9 C 21,7 C 18,9 C 62 % 1009,5 hPa 0,0 l/m 2 min 0 min 209 W/m 6,4 km/h (2 Bft) 100,00 %
06.07.2021 19:40 21,9 C 21,7 C 18,9 C 63 % 1009,6 hPa 0,0 l/m 2 min 0 min 166 W/m 12,9 km/h (3 Bft) 100,00 %
06.07.2021 19:42 21,9 C 21,7 C 18,9 C 63 % 1009,5 hPa 0,0 l/m 0 min 0 min 136 W/m 6,4 km/h (2 Bft) 100,00 %
06.07.2021 19:44 21,8 C 21,1 C 18,9 C 63 % 1009,6 hPa 0,0 l/m 0 min 0 min 103 W/m 6,4 km/h (2 Bft) 97,87 %
06.07.2021 19:46 21,8 C 21,1 C 18,9 C 63 % 1009,7 hPa 0,0 l/m 0 min 0 min 77 W/m 12,9 km/h (3 Bft) 100,00 %
06.07.2021 19:48 21,8 C 21,1 C 18,9 C 64 % 1009,7 hPa 0,0 l/m 0 min 0 min 56 W/m 6,4 km/h (2 Bft) 100,00 %
06.07.2021 19:50 21,7 C 21,1 C 18,4 C 64 % 1009,6 hPa 0,0 l/m 0 min 0 min 48 W/m 6,4 km/h (2 Bft) 100,00 %
06.07.2021 19:52 21,6 C 20,6 C 18,4 C 64 % 1009,7 hPa 0,0 l/m 0 min 0 min 56 W/m 12,9 km/h (3 Bft) 97,73 %
06.07.2021 19:54 21,5 C 20,6 C 18,4 C 63 % 1009,8 hPa 0,0 l/m 0 min 0 min 86 W/m 9,7 km/h (2 Bft) 100,00 %
06.07.2021 19:56 21,5 C 20,6 C 18,4 C 64 % 1009,8 hPa 0,0 l/m 0 min 0 min 108 W/m 12,9 km/h (3 Bft) 100,00 %
06.07.2021 19:58 21,5 C 20,6 C 18,4 C 64 % 1009,7 hPa 0,0 l/m 0 min 0 min 104 W/m 12,9 km/h (3 Bft) 100,00 %
06.07.2021 20:00 21,5 C 20,6 C 18,4 C 64 % 1009,7 hPa 0,0 l/m 0 min 0 min 94 W/m 12,9 km/h (3 Bft) 100,00 %
06.07.2021 20:02 21,4 C 20,6 C 18,4 C 64 % 1009,7 hPa 0,0 l/m 0 min 0 min 84 W/m 6,4 km/h (2 Bft) 100,00 %
06.07.2021 20:04 21,4 C 20,6 C 18,4 C 64 % 1009,7 hPa 0,0 l/m 0 min 0 min 81 W/m 6,4 km/h (2 Bft) 100,00 %
06.07.2021 20:06 21,4 C 20,6 C 18,4 C 65 % 1009,8 hPa 0,0 l/m 0 min 0 min 79 W/m 9,7 km/h (2 Bft) 100,00 %
06.07.2021 20:08 21,4 C 20,6 C 18,4 C 65 % 1009,8 hPa 0,0 l/m 0 min 0 min 66 W/m 6,4 km/h (2 Bft) 100,00 %
06.07.2021 20:10 21,3 C 20,6 C 18,4 C 65 % 1009,8 hPa 0,0 l/m 0 min 0 min 50 W/m 6,4 km/h (2 Bft) 100,00 %
06.07.2021 20:12 21,3 C 20,6 C 18,4 C 65 % 1009,8 hPa 0,0 l/m 0 min 0 min 43 W/m 9,7 km/h (2 Bft) 100,00 %
06.07.2021 20:14 21,3 C 20,6 C 18,4 C 65 % 1009,7 hPa 0,0 l/m 0 min 0 min 51 W/m 6,4 km/h (2 Bft) 100,00 %
06.07.2021 20:16 21,3 C 20,6 C 18,4 C 65 % 1009,7 hPa 0,0 l/m 0 min 0 min 52 W/m 6,4 km/h (2 Bft) 100,00 %
06.07.2021 20:18 21,2 C 20,6 C 17,8 C 66 % 1009,7 hPa 0,0 l/m 0 min 0 min 49 W/m 3,2 km/h (1 Bft) 97,37 %
06.07.2021 20:20 21,2 C 20,6 C 17,8 C 66 % 1009,8 hPa 0,0 l/m 0 min 0 min 49 W/m 3,2 km/h (1 Bft) 100,00 %
06.07.2021 20:22 21,2 C 20,6 C 17,8 C 66 % 1009,9 hPa 0,0 l/m 0 min 0 min 53 W/m 6,4 km/h (2 Bft) 97,83 %
06.07.2021 20:24 21,1 C 20,6 C 17,8 C 66 % 1009,8 hPa 0,0 l/m 0 min 0 min 62 W/m 6,4 km/h (2 Bft) 98,00 %
06.07.2021 20:26 21,1 C 20,6 C 17,8 C 66 % 1009,8 hPa 0,0 l/m 0 min 0 min 62 W/m 9,7 km/h (2 Bft) 100,00 %
06.07.2021 20:28 21,1 C 20,6 C 17,8 C 66 % 1009,8 hPa 0,0 l/m 0 min 0 min 52 W/m 6,4 km/h (2 Bft) 97,87 %
06.07.2021 20:30 21,1 C 20,6 C 17,8 C 66 % 1009,8 hPa 0,0 l/m 0 min 0 min 43 W/m 12,9 km/h (3 Bft) 100,00 %
06.07.2021 20:32 21,1 C 20,6 C 17,8 C 66 % 1009,9 hPa 0,0 l/m 0 min 0 min 37 W/m 22,5 km/h (4 Bft) 98,00 %
06.07.2021 20:34 21,0 C 20,6 C 17,8 C 65 % 1010,0 hPa 0,0 l/m 0 min 0 min 33 W/m 6,4 km/h (2 Bft) 100,00 %
06.07.2021 20:36 21,0 C 20,0 C 17,8 C 65 % 1010,0 hPa 0,0 l/m 0 min 0 min 34 W/m 16,1 km/h (3 Bft) 97,73 %
06.07.2021 20:38 21,0 C 20,0 C 17,8 C 65 % 1010,0 hPa 0,0 l/m 0 min 0 min 38 W/m 6,4 km/h (2 Bft) 100,00 %
06.07.2021 20:40 21,0 C 20,0 C 17,8 C 66 % 1009,9 hPa 0,0 l/m 0 min 0 min 37 W/m 6,4 km/h (2 Bft) 100,00 %
06.07.2021 20:42 20,9 C 20,0 C 17,8 C 66 % 1010,0 hPa 0,0 l/m 0 min 0 min 37 W/m 6,4 km/h (2 Bft) 100,00 %
06.07.2021 20:44 20,9 C 20,0 C 17,8 C 66 % 1010,2 hPa 0,0 l/m 0 min 0 min 33 W/m 29,0 km/h (5 Bft) 97,87 %
06.07.2021 20:46 20,6 C 18,9 C 17,3 C 69 % 1010,2 hPa 0,0 l/m 0 min 0 min 26 W/m 19,3 km/h (3 Bft) 97,83 %
06.07.2021 20:48 20,4 C 18,9 C 16,7 C 71 % 1010,3 hPa 0,0 l/m 0 min 0 min 18 W/m 16,1 km/h (3 Bft) 100,00 %
06.07.2021 20:50 20,1 C 18,3 C 16,1 C 72 % 1010,4 hPa 0,0 l/m 0 min 0 min 14 W/m 16,1 km/h (3 Bft) 97,87 %
06.07.2021 20:52 19,8 C 18,3 C 16,1 C 73 % 1010,4 hPa 0,0 l/m 0 min 0 min 12 W/m 9,7 km/h (2 Bft) 97,87 %
06.07.2021 20:54 19,5 C 18,3 C 16,1 C 73 % 1010,4 hPa 0,0 l/m 0 min 0 min 14 W/m 9,7 km/h (2 Bft) 95,74 %
06.07.2021 20:56 19,3 C 17,8 C 15,6 C 75 % 1010,5 hPa 0,0 l/m 0 min 0 min 16 W/m 12,9 km/h (3 Bft) 97,87 %
06.07.2021 20:58 19,2 C 17,8 C 15,6 C 75 % 1010,5 hPa 0,0 l/m 0 min 0 min 20 W/m 9,7 km/h (2 Bft) 97,83 %
06.07.2021 21:00 19,1 C 17,8 C 15,6 C 76 % 1010,4 hPa 0,0 l/m 0 min 0 min 26 W/m 12,9 km/h (3 Bft) 97,87 %
06.07.2021 21:02 19,0 C 17,8 C 15,6 C 76 % 1010,4 hPa 0,0 l/m 0 min 0 min 28 W/m 12,9 km/h (3 Bft) 95,74 %
06.07.2021 21:04 19,0 C 17,8 C 15,6 C 77 % 1010,5 hPa 0,0 l/m 0 min 0 min 30 W/m 9,7 km/h (2 Bft) 95,74 %
06.07.2021 21:06 18,9 C 17,8 C 15,6 C 77 % 1010,5 hPa 0,0 l/m 0 min 0 min 32 W/m 6,4 km/h (2 Bft) 95,74 %
06.07.2021 21:08 18,9 C 17,8 C 15,6 C 77 % 1010,6 hPa 0,0 l/m 0 min 0 min 31 W/m 3,2 km/h (1 Bft) 95,74 %
06.07.2021 21:10 18,8 C 17,8 C 15,6 C 78 % 1010,6 hPa 0,0 l/m 0 min 0 min 29 W/m 3,2 km/h (1 Bft) 95,65 %
06.07.2021 21:12 18,8 C 17,8 C 15,6 C 78 % 1010,7 hPa 0,0 l/m 0 min 0 min 28 W/m 6,4 km/h (2 Bft) 93,62 %
06.07.2021 21:14 18,8 C 17,8 C 15,6 C 78 % 1010,7 hPa 0,0 l/m 0 min 0 min 29 W/m 6,4 km/h (2 Bft) 95,74 %
06.07.2021 21:16 18,7 C 17,8 C 15,6 C 78 % 1010,6 hPa 0,0 l/m 0 min 0 min 28 W/m 6,4 km/h (2 Bft) 93,62 %
06.07.2021 21:18 18,7 C 17,8 C 15,6 C 78 % 1010,6 hPa 0,0 l/m 0 min 0 min 25 W/m 6,4 km/h (2 Bft) 93,62 %
06.07.2021 21:20 18,7 C 17,8 C 15,6 C 78 % 1010,6 hPa 0,0 l/m 0 min 0 min 22 W/m 3,2 km/h (1 Bft) 93,48 %
06.07.2021 21:22 18,7 C 17,8 C 15,6 C 78 % 1010,6 hPa 0,0 l/m 0 min 0 min 19 W/m 6,4 km/h (2 Bft) 91,49 %
06.07.2021 21:24 18,7 C 17,8 C 15,6 C 78 % 1010,6 hPa 0,0 l/m 0 min 0 min 15 W/m 3,2 km/h (1 Bft) 93,62 %
06.07.2021 21:26 18,6 C 17,8 C 15,6 C 79 % 1010,7 hPa 0,0 l/m 0 min 0 min 14 W/m 6,4 km/h (2 Bft) 91,49 %
06.07.2021 21:28 18,6 C 17,8 C 15,6 C 79 % 1010,8 hPa 0,0 l/m 0 min 0 min 13 W/m 6,4 km/h (2 Bft) 93,62 %
06.07.2021 21:30 18,5 C 17,8 C 15,6 C 79 % 1010,8 hPa 0,0 l/m 0 min 0 min 12 W/m 3,2 km/h (1 Bft) 91,49 %
06.07.2021 21:32 18,5 C 17,8 C 15,6 C 79 % 1010,9 hPa 0,0 l/m 0 min 0 min 12 W/m 3,2 km/h (1 Bft) 93,48 %
06.07.2021 21:34 18,5 C 17,2 C 15,6 C 79 % 1010,9 hPa 0,0 l/m 0 min 0 min 11 W/m 6,4 km/h (2 Bft) 93,62 %
06.07.2021 21:36 18,5 C 17,8 C 15,6 C 79 % 1010,9 hPa 0,0 l/m 0 min 0 min 11 W/m 3,2 km/h (1 Bft) 93,62 %
06.07.2021 21:38 18,5 C 17,8 C 15,6 C 79 % 1010,9 hPa 0,0 l/m 0 min 0 min 10 W/m 3,2 km/h (1 Bft) 93,62 %
06.07.2021 21:40 18,5 C 17,8 C 15,6 C 80 % 1010,9 hPa 0,0 l/m 0 min 0 min 9 W/m 6,4 km/h (2 Bft) 91,49 %
06.07.2021 21:42 18,5 C 17,8 C 15,6 C 80 % 1010,9 hPa 0,0 l/m 0 min 0 min 9 W/m 6,4 km/h (2 Bft) 93,62 %
06.07.2021 21:44 18,4 C 17,8 C 15,6 C 80 % 1011,0 hPa 0,0 l/m 0 min 0 min 9 W/m 6,4 km/h (2 Bft) 93,48 %
06.07.2021 21:46 18,4 C 17,8 C 15,6 C 80 % 1011,0 hPa 0,0 l/m 0 min 0 min 7 W/m 3,2 km/h (1 Bft) 91,49 %
06.07.2021 21:48 18,4 C 17,8 C 15,6 C 80 % 1011,0 hPa 0,0 l/m 0 min 0 min 6 W/m 3,2 km/h (1 Bft) 93,62 %
06.07.2021 21:50 18,4 C 17,8 C 15,6 C 80 % 1011,0 hPa 0,0 l/m 0 min 0 min 5 W/m 6,4 km/h (2 Bft) 93,62 %
06.07.2021 21:52 18,4 C 17,8 C 15,6 C 80 % 1011,0 hPa 0,0 l/m 0 min 0 min 5 W/m 3,2 km/h (1 Bft) 93,62 %
06.07.2021 21:54 18,4 C 17,8 C 15,6 C 80 % 1011,0 hPa 0,0 l/m 0 min 0 min 4 W/m 3,2 km/h (1 Bft) 93,62 %
06.07.2021 21:56 18,4 C 17,8 C 15,6 C 80 % 1011,1 hPa 0,0 l/m 0 min 0 min 0 W/m 3,2 km/h (1 Bft) 93,48 %
06.07.2021 21:58 18,4 C 17,8 C 15,6 C 80 % 1011,1 hPa 0,0 l/m 0 min 0 min 0 W/m 9,7 km/h (2 Bft) 95,74 %
06.07.2021 22:00 18,4 C 17,2 C 15,6 C 80 % 1011,1 hPa 0,0 l/m 0 min 0 min 0 W/m 6,4 km/h (2 Bft) 95,74 %
06.07.2021 22:02 18,4 C 17,2 C 15,6 C 80 % 1011,2 hPa 0,0 l/m 0 min 0 min 0 W/m 6,4 km/h (2 Bft) 97,87 %
06.07.2021 22:04 18,3 C 17,2 C 15,6 C 80 % 1011,2 hPa 0,0 l/m 0 min 0 min 0 W/m 6,4 km/h (2 Bft) 95,74 %
06.07.2021 22:06 18,3 C 17,2 C 15,6 C 80 % 1011,3 hPa 0,0 l/m 0 min 0 min 0 W/m 3,2 km/h (1 Bft) 100,00 %
06.07.2021 22:08 18,3 C 17,2 C 15,6 C 80 % 1011,3 hPa 0,0 l/m 0 min 0 min 0 W/m 6,4 km/h (2 Bft) 100,00 %
06.07.2021 22:10 18,3 C 17,2 C 15,6 C 80 % 1011,3 hPa 0,0 l/m 0 min 0 min 0 W/m 3,2 km/h (1 Bft) 97,87 %
06.07.2021 22:12 18,3 C 17,2 C 15,6 C 80 % 1011,3 hPa 0,0 l/m 0 min 0 min 0 W/m 0,0 km/h (0 Bft) 100,00 %
06.07.2021 22:14 18,3 C 17,2 C 15,6 C 80 % 1011,4 hPa 0,0 l/m 0 min 0 min 0 W/m 6,4 km/h (2 Bft) 100,00 %
06.07.2021 22:16 18,3 C 17,2 C 15,6 C 80 % 1011,4 hPa 0,0 l/m 0 min 0 min 0 W/m 6,4 km/h (2 Bft) 100,00 %
06.07.2021 22:18 18,3 C 17,2 C 15,6 C 80 % 1011,4 hPa 0,0 l/m 0 min 0 min 0 W/m 6,4 km/h (2 Bft) 100,00 %
06.07.2021 22:20 18,3 C 17,2 C 15,0 C 80 % 1011,4 hPa 0,0 l/m 0 min 0 min 0 W/m 3,2 km/h (1 Bft) 97,87 %
06.07.2021 22:22 18,3 C 17,2 C 15,0 C 81 % 1011,5 hPa 0,0 l/m 0 min 0 min 0 W/m 3,2 km/h (1 Bft) 100,00 %
06.07.2021 22:24 18,2 C 17,2 C 15,0 C 81 % 1011,5 hPa 0,0 l/m 0 min 0 min 0 W/m 3,2 km/h (1 Bft) 100,00 %
06.07.2021 22:26 18,2 C 17,2 C 15,0 C 81 % 1011,5 hPa 0,0 l/m 0 min 0 min 0 W/m 0,0 km/h (0 Bft) 100,00 %
06.07.2021 22:28 18,2 C 17,2 C 15,0 C 81 % 1011,5 hPa 0,0 l/m 0 min 0 min 0 W/m 3,2 km/h (1 Bft) 100,00 %
06.07.2021 22:30 18,1 C 17,2 C 15,0 C 81 % 1011,6 hPa 0,0 l/m 0 min 0 min 0 W/m 3,2 km/h (1 Bft) 97,87 %
06.07.2021 22:32 18,1 C 17,2 C 15,0 C 81 % 1011,6 hPa 0,0 l/m 0 min 0 min 0 W/m 3,2 km/h (1 Bft) 100,00 %
06.07.2021 22:34 18,1 C 17,2 C 15,0 C 81 % 1011,7 hPa 0,0 l/m 0 min 0 min 0 W/m 6,4 km/h (2 Bft) 100,00 %
06.07.2021 22:36 18,1 C 17,2 C 15,0 C 81 % 1011,7 hPa 0,0 l/m 0 min 0 min 0 W/m 3,2 km/h (1 Bft) 100,00 %
06.07.2021 22:38 18,0 C 17,2 C 15,0 C 81 % 1011,7 hPa 0,0 l/m 0 min 0 min 0 W/m 3,2 km/h (1 Bft) 100,00 %
06.07.2021 22:40 18,0 C 16,7 C 15,0 C 81 % 1011,8 hPa 0,0 l/m 0 min 0 min 0 W/m 0,0 km/h (0 Bft) 100,00 %
06.07.2021 22:42 18,0 C 16,7 C 15,0 C 81 % 1011,8 hPa 0,0 l/m 0 min 0 min 0 W/m 0,0 km/h (0 Bft) 100,00 %
06.07.2021 22:44 17,9 C 16,7 C 15,0 C 81 % 1011,8 hPa 0,0 l/m 0 min 0 min 0 W/m 3,2 km/h (1 Bft) 100,00 %
06.07.2021 22:46 17,9 C 16,7 C 15,0 C 81 % 1011,8 hPa 0,0 l/m 0 min 0 min 0 W/m 3,2 km/h (1 Bft) 100,00 %
06.07.2021 22:48 17,9 C 16,7 C 14,5 C 81 % 1011,8 hPa 0,0 l/m 0 min 0 min 0 W/m 3,2 km/h (1 Bft) 100,00 %
06.07.2021 22:50 17,8 C 16,7 C 14,5 C 82 % 1011,8 hPa 0,0 l/m 0 min 0 min 0 W/m 0,0 km/h (0 Bft) 100,00 %
06.07.2021 22:52 17,8 C 16,7 C 14,5 C 82 % 1011,8 hPa 0,0 l/m 0 min 0 min 0 W/m 3,2 km/h (1 Bft) 100,00 %
06.07.2021 22:54 17,8 C 16,7 C 14,5 C 82 % 1011,8 hPa 0,0 l/m 0 min 0 min 0 W/m 0,0 km/h (0 Bft) 100,00 %
06.07.2021 22:56 17,7 C 16,7 C 14,5 C 82 % 1011,7 hPa 0,0 l/m 0 min 0 min 0 W/m 0,0 km/h (0 Bft) 97,83 %
06.07.2021 22:58 17,6 C 16,7 C 14,5 C 82 % 1011,8 hPa 0,0 l/m 0 min 0 min 0 W/m 0,0 km/h (0 Bft) 100,00 %
06.07.2021 23:00 17,6 C 16,1 C 14,5 C 82 % 1011,9 hPa 0,0 l/m 0 min 0 min 0 W/m 0,0 km/h (0 Bft) 100,00 %
06.07.2021 23:02 17,6 C 16,1 C 14,5 C 82 % 1011,9 hPa 0,0 l/m 0 min 0 min 0 W/m 0,0 km/h (0 Bft) 97,87 %
06.07.2021 23:04 17,5 C 16,1 C 13,9 C 82 % 1011,9 hPa 0,0 l/m 0 min 0 min 0 W/m 0,0 km/h (0 Bft) 100,00 %
06.07.2021 23:06 17,5 C 16,1 C 13,9 C 82 % 1011,9 hPa 0,0 l/m 0 min 0 min 0 W/m 0,0 km/h (0 Bft) 100,00 %
06.07.2021 23:08 17,5 C 16,1 C 13,9 C 83 % 1011,9 hPa 0,0 l/m 0 min 0 min 0 W/m 3,2 km/h (1 Bft) 100,00 %
06.07.2021 23:10 17,4 C 16,1 C 13,9 C 83 % 1011,9 hPa 0,0 l/m 0 min 0 min 0 W/m 0,0 km/h (0 Bft) 100,00 %
06.07.2021 23:12 17,4 C 16,1 C 13,9 C 83 % 1012,0 hPa 0,0 l/m 0 min 0 min 0 W/m 0,0 km/h (0 Bft) 97,87 %
06.07.2021 23:14 17,3 C 16,1 C 13,9 C 83 % 1011,9 hPa 0,0 l/m 0 min 0 min 0 W/m 0,0 km/h (0 Bft) 100,00 %
06.07.2021 23:16 17,3 C 16,1 C 13,9 C 83 % 1011,9 hPa 0,0 l/m 0 min 0 min 0 W/m 0,0 km/h (0 Bft) 100,00 %
06.07.2021 23:18 17,3 C 16,1 C 13,9 C 83 % 1012,0 hPa 0,0 l/m 0 min 0 min 0 W/m 3,2 km/h (1 Bft) 100,00 %
06.07.2021 23:20 17,2 C 16,1 C 13,9 C 83 % 1012,0 hPa 0,0 l/m 0 min 0 min 0 W/m 0,0 km/h (0 Bft) 100,00 %
06.07.2021 23:22 17,2 C 16,1 C 13,9 C 83 % 1012,0 hPa 0,0 l/m 0 min 0 min 0 W/m 0,0 km/h (0 Bft) 97,87 %
06.07.2021 23:24 17,1 C 16,1 C 13,9 C 83 % 1012,0 hPa 0,0 l/m 0 min 0 min 0 W/m 3,2 km/h (1 Bft) 100,00 %
06.07.2021 23:26 17,1 C 16,1 C 13,9 C 83 % 1012,0 hPa 0,0 l/m 0 min 0 min 0 W/m 3,2 km/h (1 Bft) 100,00 %
06.07.2021 23:28 17,1 C 16,1 C 13,9 C 83 % 1012,0 hPa 0,0 l/m 0 min 0 min 0 W/m 3,2 km/h (1 Bft) 97,87 %
06.07.2021 23:30 17,1 C 16,1 C 13,9 C 83 % 1011,9 hPa 0,0 l/m 0 min 0 min 0 W/m 0,0 km/h (0 Bft) 100,00 %
06.07.2021 23:32 17,1 C 16,1 C 13,9 C 83 % 1012,0 hPa 0,0 l/m 0 min 0 min 0 W/m 0,0 km/h (0 Bft) 100,00 %
06.07.2021 23:34 17,1 C 16,1 C 13,9 C 83 % 1012,0 hPa 0,0 l/m 0 min 0 min 0 W/m 0,0 km/h (0 Bft) 100,00 %
06.07.2021 23:36 17,0 C 16,1 C 13,9 C 83 % 1012,0 hPa 0,0 l/m 0 min 0 min 0 W/m 0,0 km/h (0 Bft) 97,87 %
06.07.2021 23:38 17,0 C 16,1 C 13,9 C 83 % 1012,0 hPa 0,0 l/m 0 min 0 min 0 W/m 3,2 km/h (1 Bft) 100,00 %
06.07.2021 23:40 17,0 C 16,1 C 13,9 C 83 % 1012,0 hPa 0,0 l/m 0 min 0 min 0 W/m 0,0 km/h (0 Bft) 97,87 %
06.07.2021 23:42 17,0 C 16,1 C 13,9 C 83 % 1012,0 hPa 0,0 l/m 0 min 0 min 0 W/m 3,2 km/h (1 Bft) 97,83 %
06.07.2021 23:44 16,9 C 15,6 C 13,9 C 83 % 1012,1 hPa 0,0 l/m 0 min 0 min 0 W/m 0,0 km/h (0 Bft) 100,00 %
06.07.2021 23:46 16,9 C 15,6 C 13,9 C 83 % 1012,1 hPa 0,0 l/m 0 min 0 min 0 W/m 3,2 km/h (1 Bft) 100,00 %
06.07.2021 23:48 16,9 C 15,6 C 13,9 C 83 % 1012,1 hPa 0,0 l/m 0 min 0 min 0 W/m 0,0 km/h (0 Bft) 97,87 %
06.07.2021 23:50 16,9 C 15,6 C 13,9 C 83 % 1012,0 hPa 0,0 l/m 0 min 0 min 0 W/m 0,0 km/h (0 Bft) 100,00 %
06.07.2021 23:52 16,9 C 15,6 C 13,9 C 83 % 1012,1 hPa 0,0 l/m 0 min 0 min 0 W/m 0,0 km/h (0 Bft) 100,00 %
06.07.2021 23:54 16,9 C 15,6 C 13,4 C 83 % 1012,1 hPa 0,0 l/m 0 min 0 min 0 W/m 0,0 km/h (0 Bft) 97,83 %
06.07.2021 23:56 16,9 C 15,6 C 13,4 C 83 % 1012,1 hPa 0,0 l/m 0 min 0 min 0 W/m 0,0 km/h (0 Bft) 97,87 %
06.07.2021 23:58 16,8 C 15,6 C 13,4 C 84 % 1012,1 hPa 0,0 l/m 0 min 0 min 0 W/m 3,2 km/h (1 Bft) 97,87 %
_ Min-Zeit 23:58 23:44 23:54 15:26 08:46 - - - - 00:02 00:02
Minimum _ 16,8 C 15,6 C 13,4 C 58 % 1003,2 hPa - - - - 0,0 km/h (0 Bft) 11,11 %
_ Max-Zeit 15:22 17:10 13:10 03:50 23:44 02:48 12:08 02:46 13:14 14:34 01:48
Maximum _ 23,6 C 27,2 C 30,6 C 96 % 1012,1 hPa 0,2 l/m 4 min 2 min 1197 W/m 64,4 km/h
S (8 Bft)
100,00 %
Durchschnitt _ 19,8 C 19,5 C 18,6 C 81 % 1006,9 hPa #1,2 l/m #4:20 h #2:11 h 254 W/m 18,1 km/h (3 Bft) 97,45 %
© 2021 W. Hausmann